Check out our new PWSWeather beta!
PWSweather.com
Personal Weather Stations
Station Observations
DL5ARK
SonnebergDE

SonnebergDE

Lat: 50.34904861, Lon: 11.18112087

Elevation: 1214

Station Type: Selfmade

http://www.sumbarg.de

High Low Average
Temperature 41.7°F5.4°C 22.0°F-5.6°C 34.6°F1.4°C
Dew Point 45.6°F7.6°C 26.4°F-3.1°C 38.0°F3.3°C
Winds 6.0 mph 9.7 kmh Calm Calm 1.0 mph SSE1.6 kmh SSE
Wind Gusts 6.0 mph9.7 kmh -- 1.0 mph1.6 kmh
Humidity 93% 78% 89%
Pressure 30.09 in1019.0 mb 29.53 in1000.0 mb -
Precipitation 0.16 in4.1 mm - -
Hour Temp Dew Point Humidity Winds Wind Gusts Pressure Precip Precip Rate Daily Precip Total
12:00 AM 25.7°F-3.5°C 29.9°F-1.2°C 77% Calm Calm -- 30.12 in1020.0 mb 0.00 in0.0 mm 0.00 in0.0 mm 0.00 in0.0 mm
12:03 AM 25.7°F-3.5°C 30.1°F-1.1°C 78% Calm Calm -- 30.12 in1020.0 mb 0.00 in0.0 mm 0.00 in0.0 mm 0.00 in0.0 mm
12:06 AM 25.4°F-3.7°C 30.2°F-1.0°C 78% Calm Calm -- 30.12 in1020.0 mb 0.00 in0.0 mm 0.00 in0.0 mm 0.00 in0.0 mm
12:09 AM 25.0°F-3.9°C 29.7°F-1.3°C 78% Calm Calm -- 30.11 in1019.6 mb 0.00 in0.0 mm 0.00 in0.0 mm 0.00 in0.0 mm
12:12 AM 25.5°F-3.6°C 29.8°F-1.2°C 78% Calm Calm -- 30.11 in1019.6 mb 0.00 in0.0 mm 0.00 in0.0 mm 0.00 in0.0 mm
12:15 AM 25.0°F-3.9°C 29.8°F-1.2°C 78% Calm Calm -- 30.11 in1019.6 mb 0.00 in0.0 mm 0.00 in0.0 mm 0.00 in0.0 mm
12:18 AM 24.9°F-3.9°C 30.0°F-1.1°C 79% Calm Calm -- 30.11 in1019.6 mb 0.00 in0.0 mm 0.00 in0.0 mm 0.00 in0.0 mm
12:21 AM 24.5°F-4.2°C 29.5°F-1.4°C 78% Calm Calm -- 30.10 in1019.3 mb 0.00 in0.0 mm 0.00 in0.0 mm 0.00 in0.0 mm
12:24 AM 24.8°F-4.0°C 29.4°F-1.4°C 78% Calm Calm -- 30.10 in1019.3 mb 0.00 in0.0 mm 0.00 in0.0 mm 0.00 in0.0 mm
12:27 AM 25.1°F-3.8°C 29.4°F-1.4°C 78% Calm Calm -- 30.10 in1019.3 mb 0.00 in0.0 mm 0.00 in0.0 mm 0.00 in0.0 mm
12:30 AM 24.6°F-4.1°C 29.2°F-1.6°C 78% Calm Calm -- 30.10 in1019.3 mb 0.00 in0.0 mm 0.00 in0.0 mm 0.00 in0.0 mm
12:33 AM 24.5°F-4.2°C 29.2°F-1.6°C 78% Calm Calm -- 30.10 in1019.3 mb 0.00 in0.0 mm 0.00 in0.0 mm 0.00 in0.0 mm
12:36 AM 24.4°F-4.2°C 29.0°F-1.7°C 78% Calm Calm -- 30.10 in1019.3 mb 0.00 in0.0 mm 0.00 in0.0 mm 0.00 in0.0 mm
12:39 AM 24.7°F-4.1°C 29.2°F-1.6°C 79% Calm Calm -- 30.09 in1019.0 mb 0.00 in0.0 mm 0.00 in0.0 mm 0.00 in0.0 mm
12:42 AM 24.0°F-4.4°C 29.1°F-1.6°C 78% Calm Calm -- 30.09 in1019.0 mb 0.00 in0.0 mm 0.00 in0.0 mm 0.00 in0.0 mm
12:45 AM 25.1°F-3.8°C 29.0°F-1.7°C 79% Calm Calm -- 30.09 in1019.0 mb 0.00 in0.0 mm 0.00 in0.0 mm 0.00 in0.0 mm
12:48 AM 23.8°F-4.6°C 28.8°F-1.8°C 78% Calm Calm -- 30.09 in1019.0 mb 0.00 in0.0 mm 0.00 in0.0 mm 0.00 in0.0 mm
12:51 AM 23.8°F-4.6°C 28.9°F-1.7°C 79% Calm Calm -- 30.09 in1019.0 mb 0.00 in0.0 mm 0.00 in0.0 mm 0.00 in0.0 mm
12:54 AM 23.9°F-4.5°C 28.8°F-1.8°C 79% Calm Calm -- 30.09 in1019.0 mb 0.00 in0.0 mm 0.00 in0.0 mm 0.00 in0.0 mm
12:57 AM 23.8°F-4.6°C 28.9°F-1.7°C 79% Calm Calm -- 30.09 in1019.0 mb 0.00 in0.0 mm 0.00 in0.0 mm 0.00 in0.0 mm
01:00 AM 23.9°F-4.5°C 28.9°F-1.7°C 79% Calm Calm -- 30.09 in1019.0 mb 0.00 in0.0 mm 0.00 in0.0 mm 0.00 in0.0 mm
01:03 AM 23.6°F-4.7°C 28.7°F-1.8°C 79% Calm Calm -- 30.09 in1019.0 mb 0.00 in0.0 mm 0.00 in0.0 mm 0.00 in0.0 mm
01:06 AM 23.6°F-4.7°C 28.6°F-1.9°C 79% Calm Calm -- 30.09 in1019.0 mb 0.00 in0.0 mm 0.00 in0.0 mm 0.00 in0.0 mm
01:09 AM 23.5°F-4.7°C 28.7°F-1.8°C 79% Calm Calm -- 30.09 in1019.0 mb 0.00 in0.0 mm 0.00 in0.0 mm 0.00 in0.0 mm
01:12 AM 23.3°F-4.8°C 28.3°F-2.1°C 79% Calm Calm -- 30.09 in1019.0 mb 0.00 in0.0 mm 0.00 in0.0 mm 0.00 in0.0 mm
01:15 AM 24.8°F-4.0°C 28.3°F-2.1°C 79% Calm Calm -- 30.09 in1019.0 mb 0.00 in0.0 mm 0.00 in0.0 mm 0.00 in0.0 mm
01:18 AM 23.9°F-4.5°C 28.3°F-2.1°C 79% Calm Calm -- 30.08 in1018.6 mb 0.00 in0.0 mm 0.00 in0.0 mm 0.00 in0.0 mm
01:21 AM 23.6°F-4.7°C 28.3°F-2.1°C 79% Calm Calm -- 30.08 in1018.6 mb 0.00 in0.0 mm 0.00 in0.0 mm 0.00 in0.0 mm
01:24 AM 23.7°F-4.6°C 28.0°F-2.2°C 78% Calm Calm -- 30.08 in1018.6 mb 0.00 in0.0 mm 0.00 in0.0 mm 0.00 in0.0 mm
01:27 AM 23.3°F-4.8°C 28.4°F-2.0°C 79% Calm Calm -- 30.08 in1018.6 mb 0.00 in0.0 mm 0.00 in0.0 mm 0.00 in0.0 mm
01:30 AM 23.5°F-4.7°C 28.1°F-2.2°C 79% Calm Calm -- 30.08 in1018.6 mb 0.00 in0.0 mm 0.00 in0.0 mm 0.00 in0.0 mm
01:33 AM 23.3°F-4.8°C 28.1°F-2.2°C 79% Calm Calm -- 30.08 in1018.6 mb 0.00 in0.0 mm 0.00 in0.0 mm 0.00 in0.0 mm
01:36 AM 23.6°F-4.7°C 27.8°F-2.3°C 79% Calm Calm -- 30.08 in1018.6 mb 0.00 in0.0 mm 0.00 in0.0 mm 0.00 in0.0 mm
01:39 AM 23.1°F-4.9°C 28.1°F-2.2°C 80% Calm Calm -- 30.08 in1018.6 mb 0.00 in0.0 mm 0.00 in0.0 mm 0.00 in0.0 mm
01:42 AM 23.3°F-4.8°C 27.8°F-2.3°C 79% Calm Calm -- 30.08 in1018.6 mb 0.00 in0.0 mm 0.00 in0.0 mm 0.00 in0.0 mm
01:45 AM 23.3°F-4.8°C 27.8°F-2.3°C 79% Calm Calm -- 30.08 in1018.6 mb 0.00 in0.0 mm 0.00 in0.0 mm 0.00 in0.0 mm
01:48 AM 22.7°F-5.2°C 27.9°F-2.3°C 79% Calm Calm -- 30.08 in1018.6 mb 0.00 in0.0 mm 0.00 in0.0 mm 0.00 in0.0 mm
01:51 AM 23.5°F-4.7°C 27.7°F-2.4°C 79% Calm Calm -- 30.07 in1018.3 mb 0.00 in0.0 mm 0.00 in0.0 mm 0.00 in0.0 mm
01:54 AM 22.6°F-5.2°C 27.1°F-2.7°C 78% Calm Calm -- 30.08 in1018.6 mb 0.00 in0.0 mm 0.00 in0.0 mm 0.00 in0.0 mm
01:57 AM 22.9°F-5.1°C 27.6°F-2.4°C 79% Calm Calm -- 30.08 in1018.6 mb 0.00 in0.0 mm 0.00 in0.0 mm 0.00 in0.0 mm
02:00 AM 22.6°F-5.2°C 27.6°F-2.4°C 79% Calm Calm -- 30.08 in1018.6 mb 0.00 in0.0 mm 0.00 in0.0 mm 0.00 in0.0 mm
02:03 AM 22.7°F-5.2°C 27.4°F-2.6°C 79% Calm Calm -- 30.07 in1018.3 mb 0.00 in0.0 mm 0.00 in0.0 mm 0.00 in0.0 mm
02:06 AM 22.4°F-5.3°C 27.4°F-2.6°C 79% Calm Calm -- 30.07 in1018.3 mb 0.00 in0.0 mm 0.00 in0.0 mm 0.00 in0.0 mm
02:09 AM 22.3°F-5.4°C 27.4°F-2.6°C 79% Calm Calm -- 30.07 in1018.3 mb 0.00 in0.0 mm 0.00 in0.0 mm 0.00 in0.0 mm
02:12 AM 22.2°F-5.4°C 27.0°F-2.8°C 80% Calm Calm -- 30.07 in1018.3 mb 0.00 in0.0 mm 0.00 in0.0 mm 0.00 in0.0 mm
02:15 AM 22.3°F-5.4°C 27.1°F-2.7°C 79% Calm Calm -- 30.07 in1018.3 mb 0.00 in0.0 mm 0.00 in0.0 mm 0.00 in0.0 mm
02:18 AM 22.9°F-5.1°C 26.7°F-2.9°C 79% Calm Calm -- 30.07 in1018.3 mb 0.00 in0.0 mm 0.00 in0.0 mm 0.00 in0.0 mm
02:21 AM 22.8°F-5.1°C 27.2°F-2.7°C 80% Calm Calm -- 30.07 in1018.3 mb 0.00 in0.0 mm 0.00 in0.0 mm 0.00 in0.0 mm
02:24 AM 22.2°F-5.4°C 27.0°F-2.8°C 80% Calm Calm -- 30.07 in1018.3 mb 0.00 in0.0 mm 0.00 in0.0 mm 0.00 in0.0 mm
02:27 AM 22.0°F-5.6°C 27.0°F-2.8°C 80% Calm Calm -- 30.07 in1018.3 mb 0.00 in0.0 mm 0.00 in0.0 mm 0.00 in0.0 mm
02:30 AM 22.4°F-5.3°C 26.8°F-2.9°C 79% Calm Calm -- 30.07 in1018.3 mb 0.00 in0.0 mm 0.00 in0.0 mm 0.00 in0.0 mm
02:33 AM 22.7°F-5.2°C 26.4°F-3.1°C 79% Calm Calm -- 30.07 in1018.3 mb 0.00 in0.0 mm 0.00 in0.0 mm 0.00 in0.0 mm
02:36 AM 22.2°F-5.4°C 26.7°F-2.9°C 80% Calm Calm -- 30.07 in1018.3 mb 0.00 in0.0 mm 0.00 in0.0 mm 0.00 in0.0 mm
02:39 AM 22.3°F-5.4°C 26.8°F-2.9°C 81% Calm Calm -- 30.07 in1018.3 mb 0.00 in0.0 mm 0.00 in0.0 mm 0.00 in0.0 mm
02:42 AM 22.4°F-5.3°C 27.0°F-2.8°C 80% Calm Calm -- 30.06 in1017.9 mb 0.00 in0.0 mm 0.00 in0.0 mm 0.00 in0.0 mm
02:45 AM 22.4°F-5.3°C 26.7°F-2.9°C 80% Calm Calm -- 30.07 in1018.3 mb 0.00 in0.0 mm 0.00 in0.0 mm 0.00 in0.0 mm
02:48 AM 22.1°F-5.5°C 26.7°F-2.9°C 80% Calm Calm -- 30.07 in1018.3 mb 0.00 in0.0 mm 0.00 in0.0 mm 0.00 in0.0 mm
02:51 AM 22.2°F-5.4°C 27.2°F-2.7°C 80% Calm Calm -- 30.06 in1017.9 mb 0.00 in0.0 mm 0.00 in0.0 mm 0.00 in0.0 mm
02:54 AM 22.2°F-5.4°C 26.9°F-2.8°C 81% Calm Calm -- 30.06 in1017.9 mb 0.00 in0.0 mm 0.00 in0.0 mm 0.00 in0.0 mm
02:57 AM 22.2°F-5.4°C 26.7°F-2.9°C 80% Calm Calm -- 30.06 in1017.9 mb 0.00 in0.0 mm 0.00 in0.0 mm 0.00 in0.0 mm
03:00 AM 22.4°F-5.3°C 27.0°F-2.8°C 80% Calm Calm -- 30.06 in1017.9 mb 0.00 in0.0 mm 0.00 in0.0 mm 0.00 in0.0 mm
03:03 AM 23.0°F-5.0°C 27.0°F-2.8°C 81% Calm Calm -- 30.05 in1017.6 mb 0.00 in0.0 mm 0.00 in0.0 mm 0.00 in0.0 mm
03:06 AM 23.5°F-4.7°C 27.3°F-2.6°C 81% Calm Calm -- 30.06 in1017.9 mb 0.00 in0.0 mm 0.00 in0.0 mm 0.00 in0.0 mm
03:09 AM 23.8°F-4.6°C 27.2°F-2.7°C 82% Calm Calm -- 30.05 in1017.6 mb 0.00 in0.0 mm 0.00 in0.0 mm 0.00 in0.0 mm
03:12 AM 23.9°F-4.5°C 27.5°F-2.5°C 82% Calm Calm -- 30.05 in1017.6 mb 0.00 in0.0 mm 0.00 in0.0 mm 0.00 in0.0 mm
03:15 AM 24.2°F-4.3°C 27.2°F-2.7°C 81% Calm Calm -- 30.05 in1017.6 mb 0.00 in0.0 mm 0.00 in0.0 mm 0.00 in0.0 mm
03:18 AM 24.4°F-4.2°C 27.6°F-2.4°C 82% Calm Calm -- 30.05 in1017.6 mb 0.00 in0.0 mm 0.00 in0.0 mm 0.00 in0.0 mm
03:21 AM 24.7°F-4.1°C 27.4°F-2.6°C 82% Calm Calm -- 30.05 in1017.6 mb 0.00 in0.0 mm 0.00 in0.0 mm 0.00 in0.0 mm
03:24 AM 25.0°F-3.9°C 27.8°F-2.3°C 83% Calm Calm -- 30.05 in1017.6 mb 0.00 in0.0 mm 0.00 in0.0 mm 0.00 in0.0 mm
03:27 AM 25.3°F-3.7°C 27.8°F-2.3°C 83% Calm Calm -- 30.05 in1017.6 mb 0.00 in0.0 mm 0.00 in0.0 mm 0.00 in0.0 mm
03:30 AM 25.4°F-3.7°C 28.0°F-2.2°C 83% Calm Calm -- 30.05 in1017.6 mb 0.00 in0.0 mm 0.00 in0.0 mm 0.00 in0.0 mm
03:33 AM 25.4°F-3.7°C 28.2°F-2.1°C 83% Calm Calm -- 30.05 in1017.6 mb 0.00 in0.0 mm 0.00 in0.0 mm 0.00 in0.0 mm
03:36 AM 26.0°F-3.3°C 28.5°F-1.9°C 84% Calm Calm -- 30.05 in1017.6 mb 0.00 in0.0 mm 0.00 in0.0 mm 0.00 in0.0 mm
03:39 AM 25.8°F-3.4°C 28.2°F-2.1°C 84% Calm Calm -- 30.04 in1017.3 mb 0.00 in0.0 mm 0.00 in0.0 mm 0.00 in0.0 mm
03:42 AM 25.9°F-3.4°C 28.3°F-2.1°C 84% Calm Calm -- 30.04 in1017.3 mb 0.00 in0.0 mm 0.00 in0.0 mm 0.00 in0.0 mm
03:45 AM 26.4°F-3.1°C 28.4°F-2.0°C 84% Calm Calm -- 30.04 in1017.3 mb 0.00 in0.0 mm 0.00 in0.0 mm 0.00 in0.0 mm
03:48 AM 26.3°F-3.2°C 28.4°F-2.0°C 84% Calm Calm -- 30.04 in1017.3 mb 0.00 in0.0 mm 0.00 in0.0 mm 0.00 in0.0 mm
03:51 AM 27.1°F-2.7°C 28.9°F-1.7°C 84% Calm Calm -- 30.04 in1017.3 mb 0.00 in0.0 mm 0.00 in0.0 mm 0.00 in0.0 mm
03:54 AM 26.8°F-2.9°C 28.9°F-1.7°C 85% Calm Calm -- 30.04 in1017.3 mb 0.00 in0.0 mm 0.00 in0.0 mm 0.00 in0.0 mm
03:57 AM 27.3°F-2.6°C 29.3°F-1.5°C 85% Calm Calm -- 30.04 in1017.3 mb 0.00 in0.0 mm 0.00 in0.0 mm 0.00 in0.0 mm
04:00 AM 27.3°F-2.6°C 29.2°F-1.6°C 85% 1.6 mph SE2.6 kmh SE 1.6 mph2.6 kmh 30.04 in1017.3 mb 0.00 in0.0 mm 0.00 in0.0 mm 0.00 in0.0 mm
04:03 AM 28.1°F-2.2°C 29.7°F-1.3°C 86% 2.8 mph SE4.5 kmh SE 2.8 mph4.5 kmh 30.03 in1016.9 mb 0.00 in0.0 mm 0.00 in0.0 mm 0.00 in0.0 mm
04:06 AM 29.0°F-1.7°C 30.7°F-0.7°C 88% 3.2 mph NNW5.1 kmh NNW 3.3 mph5.3 kmh 30.03 in1016.9 mb 0.00 in0.0 mm 0.00 in0.0 mm 0.00 in0.0 mm
04:09 AM 29.3°F-1.5°C 31.2°F-0.4°C 88% 2.4 mph SE3.9 kmh SE 2.4 mph3.9 kmh 30.03 in1016.9 mb 0.00 in0.0 mm 0.00 in0.0 mm 0.00 in0.0 mm
04:12 AM 29.8°F-1.2°C 31.6°F-0.2°C 89% 4.0 mph SE6.4 kmh SE 4.0 mph6.4 kmh 30.03 in1016.9 mb 0.00 in0.0 mm 0.00 in0.0 mm 0.00 in0.0 mm
04:15 AM 30.1°F-1.1°C 32.1°F0.1°C 89% 4.4 mph SE7.1 kmh SE 4.5 mph7.2 kmh 30.03 in1016.9 mb 0.00 in0.0 mm 0.00 in0.0 mm 0.00 in0.0 mm
04:18 AM 30.2°F-1.0°C 32.4°F0.2°C 90% 5.6 mph SE9.0 kmh SE 5.7 mph9.2 kmh 30.03 in1016.9 mb 0.00 in0.0 mm 0.00 in0.0 mm 0.00 in0.0 mm
04:21 AM 30.4°F-0.9°C 32.8°F0.4°C 90% 4.4 mph SE7.1 kmh SE 4.4 mph7.1 kmh 30.03 in1016.9 mb 0.00 in0.0 mm 0.00 in0.0 mm 0.00 in0.0 mm
04:24 AM 30.7°F-0.7°C 33.0°F0.6°C 90% 4.8 mph SE7.7 kmh SE 4.8 mph7.7 kmh 30.03 in1016.9 mb 0.00 in0.0 mm 0.00 in0.0 mm 0.00 in0.0 mm
04:27 AM 30.7°F-0.7°C 33.0°F0.6°C 90% 3.6 mph ESE5.8 kmh ESE 3.6 mph5.8 kmh 30.03 in1016.9 mb 0.00 in0.0 mm 0.00 in0.0 mm 0.00 in0.0 mm
04:30 AM 30.5°F-0.8°C 33.0°F0.6°C 90% 2.4 mph NNW3.9 kmh NNW 2.4 mph3.9 kmh 30.03 in1016.9 mb 0.00 in0.0 mm 0.00 in0.0 mm 0.00 in0.0 mm
04:33 AM 30.4°F-0.9°C 33.0°F0.6°C 89% 3.2 mph SE5.1 kmh SE 3.2 mph5.1 kmh 30.03 in1016.9 mb 0.00 in0.0 mm 0.00 in0.0 mm 0.00 in0.0 mm
04:36 AM 30.4°F-0.9°C 33.1°F0.6°C 89% 4.0 mph ESE6.4 kmh ESE 4.0 mph6.4 kmh 30.03 in1016.9 mb 0.00 in0.0 mm 0.00 in0.0 mm 0.00 in0.0 mm
04:39 AM 30.4°F-0.9°C 33.2°F0.7°C 89% 3.2 mph ESE5.1 kmh ESE 3.2 mph5.1 kmh 30.03 in1016.9 mb 0.00 in0.0 mm 0.00 in0.0 mm 0.00 in0.0 mm
04:42 AM 30.2°F-1.0°C 32.9°F0.5°C 89% 2.4 mph ESE3.9 kmh ESE 2.4 mph3.9 kmh 30.03 in1016.9 mb 0.00 in0.0 mm 0.00 in0.0 mm 0.00 in0.0 mm
04:45 AM 30.0°F-1.1°C 32.6°F0.3°C 87% 3.2 mph ESE5.1 kmh ESE 3.2 mph5.1 kmh 30.03 in1016.9 mb 0.00 in0.0 mm 0.00 in0.0 mm 0.00 in0.0 mm
04:48 AM 30.0°F-1.1°C 32.7°F0.4°C 87% 2.4 mph SE3.9 kmh SE 2.4 mph3.9 kmh 30.03 in1016.9 mb 0.00 in0.0 mm 0.00 in0.0 mm 0.00 in0.0 mm
04:51 AM 29.8°F-1.2°C 32.5°F0.3°C 87% 2.8 mph SE4.5 kmh SE 2.9 mph4.7 kmh 30.02 in1016.6 mb 0.00 in0.0 mm 0.00 in0.0 mm 0.00 in0.0 mm
04:54 AM 30.0°F-1.1°C 32.8°F0.4°C 88% 1.6 mph SE2.6 kmh SE 1.6 mph2.6 kmh 30.02 in1016.6 mb 0.00 in0.0 mm 0.00 in0.0 mm 0.00 in0.0 mm
04:57 AM 30.1°F-1.1°C 32.8°F0.4°C 88% Calm Calm -- 30.02 in1016.6 mb 0.00 in0.0 mm 0.00 in0.0 mm 0.00 in0.0 mm
05:00 AM 29.3°F-1.5°C 32.6°F0.3°C 88% Calm Calm -- 30.02 in1016.6 mb 0.00 in0.0 mm 0.00 in0.0 mm 0.00 in0.0 mm
05:03 AM 29.4°F-1.4°C 32.6°F0.3°C 88% Calm Calm -- 30.02 in1016.6 mb 0.00 in0.0 mm 0.00 in0.0 mm 0.00 in0.0 mm
05:06 AM 29.2°F-1.6°C 32.4°F0.2°C 87% Calm Calm -- 30.02 in1016.6 mb 0.00 in0.0 mm 0.00 in0.0 mm 0.00 in0.0 mm
05:09 AM 29.2°F-1.6°C 32.4°F0.2°C 87% Calm Calm -- 30.01 in1016.3 mb 0.00 in0.0 mm 0.00 in0.0 mm 0.00 in0.0 mm
05:12 AM 29.0°F-1.7°C 32.2°F0.1°C 87% Calm Calm -- 30.01 in1016.3 mb 0.00 in0.0 mm 0.00 in0.0 mm 0.00 in0.0 mm
05:15 AM 28.6°F-1.9°C 32.1°F0.1°C 87% Calm Calm -- 30.02 in1016.6 mb 0.00 in0.0 mm 0.00 in0.0 mm 0.00 in0.0 mm
05:18 AM 28.6°F-1.9°C 32.3°F0.2°C 87% Calm Calm -- 30.01 in1016.3 mb 0.00 in0.0 mm 0.00 in0.0 mm 0.00 in0.0 mm
05:21 AM 28.4°F-2.0°C 32.1°F0.1°C 86% Calm Calm -- 30.01 in1016.3 mb 0.00 in0.0 mm 0.00 in0.0 mm 0.00 in0.0 mm
05:24 AM 28.5°F-1.9°C 32.0°F0.0°C 87% Calm Calm -- 30.01 in1016.3 mb 0.00 in0.0 mm 0.00 in0.0 mm 0.00 in0.0 mm
05:27 AM 29.3°F-1.5°C 32.2°F0.1°C 87% Calm Calm -- 30.01 in1016.3 mb 0.00 in0.0 mm 0.00 in0.0 mm 0.00 in0.0 mm
05:30 AM 28.7°F-1.8°C 31.9°F-0.1°C 87% Calm Calm -- 30.01 in1016.3 mb 0.00 in0.0 mm 0.00 in0.0 mm 0.00 in0.0 mm
05:33 AM 28.7°F-1.8°C 32.1°F0.1°C 87% Calm Calm -- 30.01 in1016.3 mb 0.00 in0.0 mm 0.00 in0.0 mm 0.00 in0.0 mm
05:36 AM 29.1°F-1.6°C 32.0°F0.0°C 87% Calm Calm -- 30.01 in1016.3 mb 0.00 in0.0 mm 0.00 in0.0 mm 0.00 in0.0 mm
05:39 AM 29.0°F-1.7°C 31.8°F-0.1°C 87% Calm Calm -- 30.01 in1016.3 mb 0.00 in0.0 mm 0.00 in0.0 mm 0.00 in0.0 mm
05:42 AM 29.0°F-1.7°C 32.0°F0.0°C 87% Calm Calm -- 30.01 in1016.3 mb 0.00 in0.0 mm 0.00 in0.0 mm 0.00 in0.0 mm
05:45 AM 29.1°F-1.6°C 31.8°F-0.1°C 87% Calm Calm -- 30.01 in1016.3 mb 0.00 in0.0 mm 0.00 in0.0 mm 0.00 in0.0 mm
05:48 AM 29.1°F-1.6°C 32.1°F0.1°C 87% Calm Calm -- 30.01 in1016.3 mb 0.00 in0.0 mm 0.00 in0.0 mm 0.00 in0.0 mm
05:51 AM 29.3°F-1.5°C 32.0°F0.0°C 87% Calm Calm -- 30.01 in1016.3 mb 0.00 in0.0 mm 0.00 in0.0 mm 0.00 in0.0 mm
05:54 AM 29.4°F-1.4°C 32.2°F0.1°C 87% Calm Calm -- 30.01 in1016.3 mb 0.00 in0.0 mm 0.00 in0.0 mm 0.00 in0.0 mm
05:57 AM 29.4°F-1.4°C 32.2°F0.1°C 87% Calm Calm -- 30.01 in1016.3 mb 0.00 in0.0 mm 0.00 in0.0 mm 0.00 in0.0 mm
06:00 AM 29.5°F-1.4°C 32.1°F0.1°C 87% Calm Calm -- 30.00 in1015.9 mb 0.00 in0.0 mm 0.00 in0.0 mm 0.00 in0.0 mm
06:03 AM 30.3°F-0.9°C 32.6°F0.3°C 88% Calm Calm -- 30.00 in1015.9 mb 0.00 in0.0 mm 0.00 in0.0 mm 0.00 in0.0 mm
06:06 AM 30.2°F-1.0°C 32.7°F0.4°C 89% 1.6 mph ESE2.6 kmh ESE 1.6 mph2.6 kmh 30.01 in1016.3 mb 0.00 in0.0 mm 0.00 in0.0 mm 0.00 in0.0 mm
06:09 AM 30.7°F-0.7°C 32.9°F0.5°C 89% Calm Calm -- 30.00 in1015.9 mb 0.00 in0.0 mm 0.00 in0.0 mm 0.00 in0.0 mm
06:12 AM 30.3°F-0.9°C 33.0°F0.6°C 88% Calm Calm -- 30.00 in1015.9 mb 0.00 in0.0 mm 0.00 in0.0 mm 0.00 in0.0 mm
06:15 AM 30.9°F-0.6°C 32.7°F0.4°C 87% Calm Calm -- 30.00 in1015.9 mb 0.00 in0.0 mm 0.00 in0.0 mm 0.00 in0.0 mm
06:18 AM 31.1°F-0.5°C 33.3°F0.7°C 89% 0.8 mph SSE1.3 kmh SSE 0.8 mph1.3 kmh 30.00 in1015.9 mb 0.00 in0.0 mm 0.00 in0.0 mm 0.00 in0.0 mm
06:21 AM 31.3°F-0.4°C 33.4°F0.8°C 89% Calm Calm -- 30.00 in1015.9 mb 0.00 in0.0 mm 0.00 in0.0 mm 0.00 in0.0 mm
06:24 AM 31.3°F-0.4°C 33.4°F0.8°C 89% 2.0 mph SE3.2 kmh SE 2.0 mph3.2 kmh 30.00 in1015.9 mb 0.00 in0.0 mm 0.00 in0.0 mm 0.00 in0.0 mm
06:27 AM 31.7°F-0.2°C 33.6°F0.9°C 89% 2.0 mph NNW3.2 kmh NNW 2.0 mph3.2 kmh 30.00 in1015.9 mb 0.00 in0.0 mm 0.00 in0.0 mm 0.00 in0.0 mm
06:30 AM 31.7°F-0.2°C 33.9°F1.1°C 89% Calm Calm -- 29.99 in1015.6 mb 0.00 in0.0 mm 0.00 in0.0 mm 0.00 in0.0 mm
06:33 AM 31.6°F-0.2°C 33.7°F0.9°C 88% Calm Calm -- 29.99 in1015.6 mb 0.00 in0.0 mm 0.00 in0.0 mm 0.00 in0.0 mm
06:36 AM 31.4°F-0.3°C 33.9°F1.1°C 88% Calm Calm -- 29.99 in1015.6 mb 0.00 in0.0 mm 0.00 in0.0 mm 0.00 in0.0 mm
06:39 AM 31.4°F-0.3°C 33.9°F1.1°C 88% Calm Calm -- 29.99 in1015.6 mb 0.00 in0.0 mm 0.00 in0.0 mm 0.00 in0.0 mm
06:42 AM 31.4°F-0.3°C 33.8°F1.0°C 88% Calm Calm -- 29.99 in1015.6 mb 0.00 in0.0 mm 0.00 in0.0 mm 0.00 in0.0 mm
06:45 AM 31.3°F-0.4°C 34.2°F1.2°C 88% Calm Calm -- 29.99 in1015.6 mb 0.00 in0.0 mm 0.00 in0.0 mm 0.00 in0.0 mm
06:48 AM 31.3°F-0.4°C 33.9°F1.1°C 88% Calm Calm -- 29.99 in1015.6 mb 0.00 in0.0 mm 0.00 in0.0 mm 0.00 in0.0 mm
06:51 AM 31.2°F-0.4°C 33.8°F1.0°C 88% Calm Calm -- 29.99 in1015.6 mb 0.00 in0.0 mm 0.00 in0.0 mm 0.00 in0.0 mm
06:54 AM 31.3°F-0.4°C 34.1°F1.2°C 88% 0.8 mph SE1.3 kmh SE 0.8 mph1.3 kmh 29.99 in1015.6 mb 0.00 in0.0 mm 0.00 in0.0 mm 0.00 in0.0 mm
06:57 AM 31.7°F-0.2°C 34.2°F1.2°C 88% Calm Calm -- 29.99 in1015.6 mb 0.00 in0.0 mm 0.00 in0.0 mm 0.00 in0.0 mm
07:00 AM 31.6°F-0.2°C 34.1°F1.2°C 88% Calm Calm -- 29.99 in1015.6 mb 0.00 in0.0 mm 0.00 in0.0 mm 0.00 in0.0 mm
07:03 AM 31.7°F-0.2°C 34.0°F1.1°C 88% Calm Calm -- 29.99 in1015.6 mb 0.00 in0.0 mm 0.00 in0.0 mm 0.00 in0.0 mm
07:06 AM 31.8°F-0.1°C 34.1°F1.2°C 89% 3.2 mph SE5.1 kmh SE 3.3 mph5.3 kmh 29.99 in1015.6 mb 0.00 in0.0 mm 0.00 in0.0 mm 0.00 in0.0 mm
07:09 AM 31.8°F-0.1°C 34.2°F1.2°C 88% 2.8 mph SE4.5 kmh SE 2.8 mph4.5 kmh 29.99 in1015.6 mb 0.00 in0.0 mm 0.00 in0.0 mm 0.00 in0.0 mm
07:12 AM 31.8°F-0.1°C 34.4°F1.3°C 89% 1.2 mph SE1.9 kmh SE 1.2 mph1.9 kmh 29.99 in1015.6 mb 0.00 in0.0 mm 0.00 in0.0 mm 0.00 in0.0 mm
07:15 AM 31.9°F-0.1°C 34.3°F1.3°C 88% 2.4 mph SE3.9 kmh SE 2.4 mph3.9 kmh 29.99 in1015.6 mb 0.00 in0.0 mm 0.00 in0.0 mm 0.00 in0.0 mm
07:18 AM 31.9°F-0.1°C 34.3°F1.3°C 88% Calm Calm -- 29.99 in1015.6 mb 0.00 in0.0 mm 0.00 in0.0 mm 0.00 in0.0 mm
07:21 AM 31.9°F-0.1°C 34.3°F1.3°C 89% Calm Calm -- 29.99 in1015.6 mb 0.00 in0.0 mm 0.00 in0.0 mm 0.00 in0.0 mm
07:24 AM 31.9°F-0.1°C 34.4°F1.3°C 88% Calm Calm -- 29.99 in1015.6 mb 0.00 in0.0 mm 0.00 in0.0 mm 0.00 in0.0 mm
07:27 AM 32.0°F0.0°C 34.4°F1.3°C 88% Calm Calm -- 29.99 in1015.6 mb 0.00 in0.0 mm 0.00 in0.0 mm 0.00 in0.0 mm
07:30 AM 32.0°F0.0°C 34.6°F1.4°C 88% Calm Calm -- 29.99 in1015.6 mb 0.00 in0.0 mm 0.00 in0.0 mm 0.00 in0.0 mm
07:33 AM 32.1°F0.1°C 34.6°F1.4°C 88% Calm Calm -- 29.99 in1015.6 mb 0.00 in0.0 mm 0.00 in0.0 mm 0.00 in0.0 mm
07:36 AM 32.1°F0.1°C 34.5°F1.4°C 88% 2.4 mph ESE3.9 kmh ESE 2.4 mph3.9 kmh 29.99 in1015.6 mb 0.00 in0.0 mm 0.00 in0.0 mm 0.00 in0.0 mm
07:39 AM 32.2°F0.1°C 34.3°F1.3°C 87% 2.0 mph SE3.2 kmh SE 2.0 mph3.2 kmh 29.99 in1015.6 mb 0.00 in0.0 mm 0.00 in0.0 mm 0.00 in0.0 mm
07:42 AM 32.2°F0.1°C 34.3°F1.3°C 87% 3.2 mph SE5.1 kmh SE 3.3 mph5.3 kmh 29.99 in1015.6 mb 0.00 in0.0 mm 0.00 in0.0 mm 0.00 in0.0 mm
07:45 AM 32.3°F0.2°C 34.3°F1.3°C 88% 4.5 mph SE7.2 kmh SE 4.5 mph7.2 kmh 29.99 in1015.6 mb 0.00 in0.0 mm 0.00 in0.0 mm 0.00 in0.0 mm
07:48 AM 32.3°F0.2°C 34.7°F1.5°C 89% 1.6 mph SSE2.6 kmh SSE 1.6 mph2.6 kmh 29.99 in1015.6 mb 0.00 in0.0 mm 0.00 in0.0 mm 0.00 in0.0 mm
07:51 AM 32.5°F0.3°C 34.4°F1.3°C 88% 4.0 mph SSE6.4 kmh SSE 4.0 mph6.4 kmh 29.99 in1015.6 mb 0.00 in0.0 mm 0.00 in0.0 mm 0.00 in0.0 mm
07:54 AM 32.5°F0.3°C 34.5°F1.4°C 88% 2.4 mph SSE3.9 kmh SSE 2.4 mph3.9 kmh 29.99 in1015.6 mb 0.00 in0.0 mm 0.00 in0.0 mm 0.00 in0.0 mm
07:57 AM 32.5°F0.3°C 34.4°F1.3°C 87% Calm Calm -- 29.99 in1015.6 mb 0.00 in0.0 mm 0.00 in0.0 mm 0.00 in0.0 mm
08:00 AM 32.5°F0.3°C 34.7°F1.5°C 89% Calm Calm -- 29.99 in1015.6 mb 0.00 in0.0 mm 0.00 in0.0 mm 0.00 in0.0 mm
08:03 AM 32.5°F0.3°C 34.8°F1.6°C 88% 0.8 mph SSE1.3 kmh SSE 0.8 mph1.3 kmh 29.99 in1015.6 mb 0.00 in0.0 mm 0.00 in0.0 mm 0.00 in0.0 mm
08:06 AM 32.6°F0.3°C 34.8°F1.6°C 88% 1.6 mph SSE2.6 kmh SSE 1.6 mph2.6 kmh 29.99 in1015.6 mb 0.00 in0.0 mm 0.00 in0.0 mm 0.00 in0.0 mm
08:09 AM 32.6°F0.3°C 35.0°F1.7°C 88% Calm Calm -- 29.99 in1015.6 mb 0.00 in0.0 mm 0.00 in0.0 mm 0.00 in0.0 mm
08:12 AM 32.6°F0.3°C 35.0°F1.7°C 88% Calm Calm -- 29.99 in1015.6 mb 0.00 in0.0 mm 0.00 in0.0 mm 0.00 in0.0 mm
08:15 AM 32.6°F0.3°C 34.7°F1.5°C 87% Calm Calm -- 29.99 in1015.6 mb 0.00 in0.0 mm 0.00 in0.0 mm 0.00 in0.0 mm
08:18 AM 32.6°F0.3°C 35.0°F1.7°C 88% Calm Calm -- 29.98 in1015.2 mb 0.00 in0.0 mm 0.00 in0.0 mm 0.00 in0.0 mm
08:21 AM 32.6°F0.3°C 35.0°F1.7°C 88% Calm Calm -- 29.99 in1015.6 mb 0.00 in0.0 mm 0.00 in0.0 mm 0.00 in0.0 mm
08:24 AM 32.7°F0.4°C 35.0°F1.7°C 89% Calm Calm -- 29.98 in1015.2 mb 0.00 in0.0 mm 0.00 in0.0 mm 0.00 in0.0 mm
08:27 AM 32.7°F0.4°C 35.5°F1.9°C 89% Calm Calm -- 29.98 in1015.2 mb 0.00 in0.0 mm 0.00 in0.0 mm 0.00 in0.0 mm
08:30 AM 32.8°F0.4°C 35.3°F1.8°C 89% 1.6 mph SSE2.6 kmh SSE 1.6 mph2.6 kmh 29.97 in1014.9 mb 0.00 in0.0 mm 0.00 in0.0 mm 0.00 in0.0 mm
08:33 AM 32.9°F0.5°C 35.2°F1.8°C 88% 1.6 mph SE2.6 kmh SE 1.6 mph2.6 kmh 29.97 in1014.9 mb 0.00 in0.0 mm 0.00 in0.0 mm 0.00 in0.0 mm
08:36 AM 32.9°F0.5°C 35.5°F1.9°C 89% Calm Calm -- 29.97 in1014.9 mb 0.00 in0.0 mm 0.00 in0.0 mm 0.00 in0.0 mm
08:39 AM 33.0°F0.6°C 35.4°F1.9°C 88% Calm Calm -- 29.97 in1014.9 mb 0.00 in0.0 mm 0.00 in0.0 mm 0.00 in0.0 mm
08:42 AM 33.1°F0.6°C 35.7°F2.1°C 89% Calm Calm -- 29.97 in1014.9 mb 0.00 in0.0 mm 0.00 in0.0 mm 0.00 in0.0 mm
08:45 AM 33.1°F0.6°C 35.6°F2.0°C 89% Calm Calm -- 29.97 in1014.9 mb 0.00 in0.0 mm 0.00 in0.0 mm 0.00 in0.0 mm
08:48 AM 33.2°F0.7°C 35.6°F2.0°C 88% 1.6 mph SE2.6 kmh SE 1.6 mph2.6 kmh 29.97 in1014.9 mb 0.00 in0.0 mm 0.00 in0.0 mm 0.00 in0.0 mm
08:51 AM 33.2°F0.7°C 35.6°F2.0°C 88% 2.8 mph SE4.5 kmh SE 2.8 mph4.5 kmh 29.96 in1014.6 mb 0.00 in0.0 mm 0.00 in0.0 mm 0.00 in0.0 mm
08:54 AM 33.2°F0.7°C 35.8°F2.1°C 89% 1.6 mph SE2.6 kmh SE 1.6 mph2.6 kmh 29.96 in1014.6 mb 0.00 in0.0 mm 0.00 in0.0 mm 0.00 in0.0 mm
08:57 AM 33.4°F0.8°C 35.7°F2.1°C 89% Calm Calm -- 29.96 in1014.6 mb 0.00 in0.0 mm 0.00 in0.0 mm 0.00 in0.0 mm
09:00 AM 33.4°F0.8°C 35.7°F2.1°C 89% 1.2 mph SE1.9 kmh SE 1.2 mph1.9 kmh 29.96 in1014.6 mb 0.00 in0.0 mm 0.00 in0.0 mm 0.00 in0.0 mm
09:03 AM 33.4°F0.8°C 35.8°F2.1°C 89% 1.2 mph NNW1.9 kmh NNW 1.2 mph1.9 kmh 29.96 in1014.6 mb 0.00 in0.0 mm 0.00 in0.0 mm 0.00 in0.0 mm
09:06 AM 33.4°F0.8°C 36.0°F2.2°C 89% 1.2 mph SE1.9 kmh SE 1.2 mph1.9 kmh 29.96 in1014.6 mb 0.00 in0.0 mm 0.00 in0.0 mm 0.00 in0.0 mm
09:09 AM 33.6°F0.9°C 35.6°F2.0°C 88% Calm Calm -- 29.96 in1014.6 mb 0.00 in0.0 mm 0.00 in0.0 mm 0.00 in0.0 mm
09:12 AM 33.6°F0.9°C 36.0°F2.2°C 89% Calm Calm -- 29.96 in1014.6 mb 0.00 in0.0 mm 0.00 in0.0 mm 0.00 in0.0 mm
09:15 AM 33.8°F1.0°C 36.0°F2.2°C 88% Calm Calm -- 29.96 in1014.6 mb 0.00 in0.0 mm 0.00 in0.0 mm 0.00 in0.0 mm
09:18 AM 33.7°F0.9°C 36.5°F2.5°C 89% Calm Calm -- 29.96 in1014.6 mb 0.00 in0.0 mm 0.00 in0.0 mm 0.00 in0.0 mm
09:21 AM 33.9°F1.1°C 36.3°F2.4°C 89% Calm Calm -- 29.96 in1014.6 mb 0.00 in0.0 mm 0.00 in0.0 mm 0.00 in0.0 mm
09:24 AM 33.8°F1.0°C 36.2°F2.3°C 89% Calm Calm -- 29.96 in1014.6 mb 0.00 in0.0 mm 0.00 in0.0 mm 0.00 in0.0 mm
09:27 AM 33.8°F1.0°C 36.4°F2.4°C 89% Calm Calm -- 29.96 in1014.6 mb 0.00 in0.0 mm 0.00 in0.0 mm 0.00 in0.0 mm
09:30 AM 33.8°F1.0°C 36.5°F2.5°C 89% 1.2 mph SE1.9 kmh SE 1.2 mph1.9 kmh 29.95 in1014.2 mb 0.00 in0.0 mm 0.00 in0.0 mm 0.00 in0.0 mm
09:33 AM 33.9°F1.1°C 36.6°F2.6°C 89% Calm Calm -- 29.95 in1014.2 mb 0.00 in0.0 mm 0.00 in0.0 mm 0.00 in0.0 mm
09:36 AM 34.0°F1.1°C 36.6°F2.6°C 89% Calm Calm -- 29.96 in1014.6 mb 0.00 in0.0 mm 0.00 in0.0 mm 0.00 in0.0 mm
09:39 AM 34.0°F1.1°C 36.7°F2.6°C 90% Calm Calm -- 29.96 in1014.6 mb 0.00 in0.0 mm 0.00 in0.0 mm 0.00 in0.0 mm
09:42 AM 34.1°F1.2°C 36.6°F2.6°C 89% Calm Calm -- 29.95 in1014.2 mb 0.00 in0.0 mm 0.00 in0.0 mm 0.00 in0.0 mm
09:45 AM 34.1°F1.2°C 37.0°F2.8°C 90% Calm Calm -- 29.95 in1014.2 mb 0.00 in0.0 mm 0.00 in0.0 mm 0.00 in0.0 mm
09:48 AM 34.0°F1.1°C 36.8°F2.7°C 90% Calm Calm -- 29.95 in1014.2 mb 0.00 in0.0 mm 0.00 in0.0 mm 0.00 in0.0 mm
09:51 AM 34.4°F1.3°C 37.0°F2.8°C 90% 2.0 mph SE3.2 kmh SE 2.0 mph3.2 kmh 29.94 in1013.9 mb 0.00 in0.0 mm 0.00 in0.0 mm 0.00 in0.0 mm
09:54 AM 34.3°F1.3°C 37.0°F2.8°C 90% 1.6 mph SE2.6 kmh SE 1.6 mph2.6 kmh 29.94 in1013.9 mb 0.00 in0.0 mm 0.00 in0.0 mm 0.00 in0.0 mm
09:57 AM 34.5°F1.4°C 37.0°F2.8°C 90% 3.2 mph SE5.1 kmh SE 3.3 mph5.3 kmh 29.94 in1013.9 mb 0.00 in0.0 mm 0.00 in0.0 mm 0.00 in0.0 mm
10:00 AM 34.5°F1.4°C 37.1°F2.8°C 90% Calm Calm -- 29.94 in1013.9 mb 0.00 in0.0 mm 0.00 in0.0 mm 0.00 in0.0 mm
10:03 AM 34.6°F1.4°C 37.4°F3.0°C 90% 2.0 mph SE3.2 kmh SE 2.0 mph3.2 kmh 29.94 in1013.9 mb 0.00 in0.0 mm 0.00 in0.0 mm 0.00 in0.0 mm
10:06 AM 34.7°F1.5°C 37.3°F2.9°C 90% 2.8 mph SE4.5 kmh SE 2.9 mph4.7 kmh 29.94 in1013.9 mb 0.00 in0.0 mm 0.00 in0.0 mm 0.00 in0.0 mm
10:09 AM 34.7°F1.5°C 37.4°F3.0°C 90% 0.4 mph SE0.6 kmh SE 0.4 mph0.6 kmh 29.94 in1013.9 mb 0.00 in0.0 mm 0.00 in0.0 mm 0.00 in0.0 mm
10:12 AM 34.8°F1.6°C 37.4°F3.0°C 90% 1.6 mph SE2.6 kmh SE 1.6 mph2.6 kmh 29.94 in1013.9 mb 0.00 in0.0 mm 0.00 in0.0 mm 0.00 in0.0 mm
10:15 AM 34.6°F1.4°C 37.6°F3.1°C 90% 0.8 mph SE1.3 kmh SE 0.8 mph1.3 kmh 29.93 in1013.5 mb 0.00 in0.0 mm 0.00 in0.0 mm 0.00 in0.0 mm
10:18 AM 34.6°F1.4°C 37.0°F2.8°C 89% Calm Calm -- 29.94 in1013.9 mb 0.00 in0.0 mm 0.00 in0.0 mm 0.00 in0.0 mm
10:21 AM 34.7°F1.5°C 37.6°F3.1°C 90% 3.2 mph SE5.1 kmh SE 3.2 mph5.1 kmh 29.93 in1013.5 mb 0.00 in0.0 mm 0.00 in0.0 mm 0.00 in0.0 mm
10:24 AM 34.7°F1.5°C 37.6°F3.1°C 91% 3.2 mph SE5.1 kmh SE 3.2 mph5.1 kmh 29.93 in1013.5 mb 0.00 in0.0 mm 0.00 in0.0 mm 0.00 in0.0 mm
10:27 AM 34.9°F1.6°C 37.4°F3.0°C 89% Calm Calm -- 29.92 in1013.2 mb 0.00 in0.0 mm 0.00 in0.0 mm 0.00 in0.0 mm
10:30 AM 35.0°F1.7°C 37.9°F3.3°C 91% 1.2 mph SSE1.9 kmh SSE 1.2 mph1.9 kmh 29.93 in1013.5 mb 0.00 in0.0 mm 0.00 in0.0 mm 0.00 in0.0 mm
10:33 AM 35.2°F1.8°C 37.9°F3.3°C 91% Calm Calm -- 29.93 in1013.5 mb 0.00 in0.0 mm 0.00 in0.0 mm 0.00 in0.0 mm
10:36 AM 35.3°F1.8°C 37.9°F3.3°C 91% Calm Calm -- 29.93 in1013.5 mb 0.00 in0.0 mm 0.00 in0.0 mm 0.00 in0.0 mm
10:39 AM 35.4°F1.9°C 38.2°F3.4°C 91% 0.8 mph S1.3 kmh S 0.8 mph1.3 kmh 29.92 in1013.2 mb 0.00 in0.0 mm 0.00 in0.0 mm 0.00 in0.0 mm
10:42 AM 35.4°F1.9°C 38.0°F3.3°C 91% 2.0 mph SSE3.2 kmh SSE 2.0 mph3.2 kmh 29.93 in1013.5 mb 0.00 in0.0 mm 0.00 in0.0 mm 0.00 in0.0 mm
10:45 AM 35.5°F1.9°C 38.0°F3.3°C 91% 1.6 mph S2.6 kmh S 1.6 mph2.6 kmh 29.93 in1013.5 mb 0.00 in0.0 mm 0.00 in0.0 mm 0.00 in0.0 mm
10:48 AM 35.4°F1.9°C 38.5°F3.6°C 91% 0.4 mph S0.6 kmh S 0.4 mph0.6 kmh 29.92 in1013.2 mb 0.00 in0.0 mm 0.00 in0.0 mm 0.00 in0.0 mm
10:51 AM 35.8°F2.1°C 38.5°F3.6°C 91% Calm Calm -- 29.92 in1013.2 mb 0.00 in0.0 mm 0.00 in0.0 mm 0.00 in0.0 mm
10:54 AM 35.8°F2.1°C 38.5°F3.6°C 90% Calm Calm -- 29.92 in1013.2 mb 0.00 in0.0 mm 0.00 in0.0 mm 0.00 in0.0 mm
10:57 AM 35.7°F2.1°C 38.6°F3.7°C 91% 3.2 mph SE5.1 kmh SE 3.3 mph5.3 kmh 29.92 in1013.2 mb 0.00 in0.0 mm 0.00 in0.0 mm 0.00 in0.0 mm
11:00 AM 35.7°F2.1°C 38.5°F3.6°C 91% 2.4 mph SSE3.9 kmh SSE 2.4 mph3.9 kmh 29.92 in1013.2 mb 0.00 in0.0 mm 0.00 in0.0 mm 0.00 in0.0 mm
11:03 AM 35.8°F2.1°C 38.7°F3.7°C 91% 0.4 mph NNW0.6 kmh NNW 0.4 mph0.6 kmh 29.92 in1013.2 mb 0.00 in0.0 mm 0.00 in0.0 mm 0.00 in0.0 mm
11:06 AM 36.1°F2.3°C 38.7°F3.7°C 91% Calm Calm -- 29.92 in1013.2 mb 0.00 in0.0 mm 0.00 in0.0 mm 0.00 in0.0 mm
11:09 AM 36.1°F2.3°C 39.0°F3.9°C 91% 2.0 mph SSE3.2 kmh SSE 2.0 mph3.2 kmh 29.92 in1013.2 mb 0.00 in0.0 mm 0.00 in0.0 mm 0.00 in0.0 mm
11:12 AM 35.9°F2.2°C 38.6°F3.7°C 91% Calm Calm -- 29.92 in1013.2 mb 0.00 in0.0 mm 0.00 in0.0 mm 0.00 in0.0 mm
11:15 AM 36.2°F2.3°C 38.8°F3.8°C 91% 1.2 mph S1.9 kmh S 1.2 mph1.9 kmh 29.91 in1012.9 mb 0.00 in0.0 mm 0.00 in0.0 mm 0.00 in0.0 mm
11:18 AM 36.3°F2.4°C 38.8°F3.8°C 91% 0.4 mph NNW0.6 kmh NNW 0.4 mph0.6 kmh 29.91 in1012.9 mb 0.00 in0.0 mm 0.00 in0.0 mm 0.00 in0.0 mm
11:21 AM 36.3°F2.4°C 39.1°F3.9°C 91% Calm Calm -- 29.91 in1012.9 mb 0.00 in0.0 mm 0.00 in0.0 mm 0.00 in0.0 mm
11:24 AM 36.4°F2.4°C 39.2°F4.0°C 91% Calm Calm -- 29.90 in1012.5 mb 0.00 in0.0 mm 0.00 in0.0 mm 0.00 in0.0 mm
11:27 AM 36.4°F2.4°C 39.2°F4.0°C 91% 2.4 mph S3.9 kmh S 2.4 mph3.9 kmh 29.90 in1012.5 mb 0.00 in0.0 mm 0.00 in0.0 mm 0.00 in0.0 mm
11:30 AM 36.6°F2.6°C 39.3°F4.1°C 91% Calm Calm -- 29.90 in1012.5 mb 0.00 in0.0 mm 0.00 in0.0 mm 0.00 in0.0 mm
11:33 AM 36.4°F2.4°C 39.5°F4.2°C 91% 0.4 mph S0.6 kmh S 0.4 mph0.6 kmh 29.90 in1012.5 mb 0.00 in0.0 mm 0.00 in0.0 mm 0.00 in0.0 mm
11:36 AM 36.4°F2.4°C 39.4°F4.1°C 91% Calm Calm -- 29.90 in1012.5 mb 0.00 in0.0 mm 0.00 in0.0 mm 0.00 in0.0 mm
11:39 AM 36.5°F2.5°C 39.0°F3.9°C 90% 0.8 mph SSW1.3 kmh SSW 0.8 mph1.3 kmh 29.90 in1012.5 mb 0.00 in0.0 mm 0.00 in0.0 mm 0.00 in0.0 mm
11:42 AM 36.6°F2.6°C 39.5°F4.2°C 91% 2.4 mph NNW3.9 kmh NNW 2.4 mph3.9 kmh 29.90 in1012.5 mb 0.00 in0.0 mm 0.00 in0.0 mm 0.00 in0.0 mm
11:45 AM 36.7°F2.6°C 39.4°F4.1°C 91% 2.4 mph S3.9 kmh S 2.5 mph4.0 kmh 29.90 in1012.5 mb 0.00 in0.0 mm 0.00 in0.0 mm 0.00 in0.0 mm
11:48 AM 36.8°F2.7°C 39.3°F4.1°C 90% Calm Calm -- 29.89 in1012.2 mb 0.00 in0.0 mm 0.00 in0.0 mm 0.00 in0.0 mm
11:51 AM 36.7°F2.6°C 39.4°F4.1°C 91% 0.8 mph SSE1.3 kmh SSE 0.8 mph1.3 kmh 29.89 in1012.2 mb 0.00 in0.0 mm 0.00 in0.0 mm 0.00 in0.0 mm
11:54 AM 36.7°F2.6°C 39.2°F4.0°C 91% 2.8 mph SSE4.5 kmh SSE 2.9 mph4.7 kmh 29.88 in1011.9 mb 0.00 in0.0 mm 0.00 in0.0 mm 0.00 in0.0 mm
11:57 AM 36.8°F2.7°C 39.7°F4.3°C 91% 2.0 mph S3.2 kmh S 2.0 mph3.2 kmh 29.89 in1012.2 mb 0.00 in0.0 mm 0.00 in0.0 mm 0.00 in0.0 mm
12:00 PM 37.0°F2.8°C 39.7°F4.3°C 91% 0.8 mph SSE1.3 kmh SSE 0.8 mph1.3 kmh 29.88 in1011.9 mb 0.00 in0.0 mm 0.00 in0.0 mm 0.00 in0.0 mm
12:03 PM 37.1°F2.8°C 39.8°F4.3°C 90% 0.4 mph SSE0.6 kmh SSE 0.4 mph0.6 kmh 29.88 in1011.9 mb 0.00 in0.0 mm 0.00 in0.0 mm 0.00 in0.0 mm
12:06 PM 37.1°F2.8°C 39.7°F4.3°C 91% 1.2 mph SSE1.9 kmh SSE 1.2 mph1.9 kmh 29.88 in1011.9 mb 0.00 in0.0 mm 0.00 in0.0 mm 0.00 in0.0 mm
12:09 PM 37.0°F2.8°C 39.7°F4.3°C 91% 2.8 mph S4.5 kmh S 2.9 mph4.7 kmh 29.88 in1011.9 mb 0.00 in0.0 mm 0.00 in0.0 mm 0.00 in0.0 mm
12:12 PM 37.1°F2.8°C 39.7°F4.3°C 91% Calm Calm -- 29.88 in1011.9 mb 0.00 in0.0 mm 0.00 in0.0 mm 0.00 in0.0 mm
12:15 PM 37.1°F2.8°C 39.6°F4.2°C 91% 5.6 mph S9.0 kmh S 5.6 mph9.0 kmh 29.88 in1011.9 mb 0.00 in0.0 mm 0.00 in0.0 mm 0.00 in0.0 mm
12:18 PM 37.1°F2.8°C 39.3°F4.1°C 89% 0.8 mph SSE1.3 kmh SSE 0.8 mph1.3 kmh 29.87 in1011.5 mb 0.00 in0.0 mm 0.00 in0.0 mm 0.00 in0.0 mm
12:21 PM 37.2°F2.9°C 39.8°F4.3°C 91% 0.4 mph SSE0.6 kmh SSE 0.4 mph0.6 kmh 29.88 in1011.9 mb 0.00 in0.0 mm 0.00 in0.0 mm 0.00 in0.0 mm
12:24 PM 37.3°F2.9°C 39.8°F4.3°C 91% 1.2 mph NNW1.9 kmh NNW 1.2 mph1.9 kmh 29.88 in1011.9 mb 0.00 in0.0 mm 0.00 in0.0 mm 0.00 in0.0 mm
12:27 PM 37.3°F2.9°C 39.9°F4.4°C 90% Calm Calm -- 29.87 in1011.5 mb 0.00 in0.0 mm 0.00 in0.0 mm 0.00 in0.0 mm
12:30 PM 37.2°F2.9°C 40.2°F4.6°C 90% 0.4 mph S0.6 kmh S 0.4 mph0.6 kmh 29.87 in1011.5 mb 0.00 in0.0 mm 0.00 in0.0 mm 0.00 in0.0 mm
12:33 PM 37.2°F2.9°C 39.8°F4.3°C 90% 2.0 mph SSE3.2 kmh SSE 2.0 mph3.2 kmh 29.86 in1011.2 mb 0.00 in0.0 mm 0.00 in0.0 mm 0.00 in0.0 mm
12:36 PM 37.2°F2.9°C 40.1°F4.5°C 90% Calm Calm -- 29.86 in1011.2 mb 0.00 in0.0 mm 0.00 in0.0 mm 0.00 in0.0 mm
12:39 PM 37.3°F2.9°C 40.4°F4.7°C 90% 0.8 mph S1.3 kmh S 0.8 mph1.3 kmh 29.86 in1011.2 mb 0.00 in0.0 mm 0.00 in0.0 mm 0.00 in0.0 mm
12:42 PM 37.4°F3.0°C 40.2°F4.6°C 90% Calm Calm -- 29.86 in1011.2 mb 0.00 in0.0 mm 0.00 in0.0 mm 0.00 in0.0 mm
12:45 PM 37.6°F3.1°C 40.3°F4.6°C 90% Calm Calm -- 29.86 in1011.2 mb 0.00 in0.0 mm 0.00 in0.0 mm 0.00 in0.0 mm
12:48 PM 37.5°F3.1°C 40.5°F4.7°C 90% Calm Calm -- 29.86 in1011.2 mb 0.00 in0.0 mm 0.00 in0.0 mm 0.00 in0.0 mm
12:51 PM 37.7°F3.2°C 40.3°F4.6°C 90% 2.0 mph SE3.2 kmh SE 2.0 mph3.2 kmh 29.85 in1010.8 mb 0.00 in0.0 mm 0.00 in0.0 mm 0.00 in0.0 mm
12:54 PM 37.6°F3.1°C 40.4°F4.7°C 90% Calm Calm -- 29.85 in1010.8 mb 0.00 in0.0 mm 0.00 in0.0 mm 0.00 in0.0 mm
12:57 PM 37.7°F3.2°C 40.3°F4.6°C 90% 0.4 mph SSW0.6 kmh SSW 0.4 mph0.6 kmh 29.85 in1010.8 mb 0.00 in0.0 mm 0.00 in0.0 mm 0.00 in0.0 mm
01:00 PM 37.4°F3.0°C 40.2°F4.6°C 90% 2.4 mph SSE3.9 kmh SSE 2.4 mph3.9 kmh 29.85 in1010.8 mb 0.00 in0.0 mm 0.00 in0.0 mm 0.00 in0.0 mm
01:03 PM 37.5°F3.1°C 40.3°F4.6°C 90% 1.6 mph SW2.6 kmh SW 1.6 mph2.6 kmh 29.85 in1010.8 mb 0.00 in0.0 mm 0.00 in0.0 mm 0.00 in0.0 mm
01:06 PM 37.6°F3.1°C 40.3°F4.6°C 90% 2.0 mph SSW3.2 kmh SSW 2.0 mph3.2 kmh 29.84 in1010.5 mb 0.00 in0.0 mm 0.00 in0.0 mm 0.00 in0.0 mm
01:09 PM 37.6°F3.1°C 40.5°F4.7°C 90% 2.4 mph S3.9 kmh S 2.4 mph3.9 kmh 29.84 in1010.5 mb 0.00 in0.0 mm 0.00 in0.0 mm 0.00 in0.0 mm
01:12 PM 37.6°F3.1°C 40.4°F4.7°C 90% Calm Calm -- 29.83 in1010.2 mb 0.00 in0.0 mm 0.00 in0.0 mm 0.00 in0.0 mm
01:15 PM 37.5°F3.1°C 40.5°F4.7°C 90% Calm Calm -- 29.84 in1010.5 mb 0.00 in0.0 mm 0.00 in0.0 mm 0.00 in0.0 mm
01:18 PM 37.6°F3.1°C 40.4°F4.7°C 89% 2.0 mph S3.2 kmh S 2.0 mph3.2 kmh 29.83 in1010.2 mb 0.00 in0.0 mm 0.00 in0.0 mm 0.00 in0.0 mm
01:21 PM 37.7°F3.2°C 40.4°F4.7°C 90% Calm Calm -- 29.83 in1010.2 mb 0.00 in0.0 mm 0.00 in0.0 mm 0.00 in0.0 mm
01:24 PM 37.7°F3.2°C 40.7°F4.8°C 90% Calm Calm -- 29.83 in1010.2 mb 0.00 in0.0 mm 0.00 in0.0 mm 0.00 in0.0 mm
01:27 PM 37.9°F3.3°C 40.3°F4.6°C 90% 0.8 mph S1.3 kmh S 0.8 mph1.3 kmh 29.83 in1010.2 mb 0.00 in0.0 mm 0.00 in0.0 mm 0.00 in0.0 mm
01:30 PM 37.5°F3.1°C 40.5°F4.7°C 90% Calm Calm -- 29.83 in1010.2 mb 0.00 in0.0 mm 0.00 in0.0 mm 0.00 in0.0 mm
01:33 PM 37.6°F3.1°C 40.5°F4.7°C 89% Calm Calm -- 29.83 in1010.2 mb 0.00 in0.0 mm 0.00 in0.0 mm 0.00 in0.0 mm
01:36 PM 37.7°F3.2°C 40.5°F4.7°C 90% Calm Calm -- 29.83 in1010.2 mb 0.00 in0.0 mm 0.00 in0.0 mm 0.00 in0.0 mm
01:39 PM 37.5°F3.1°C 40.5°F4.7°C 90% 0.8 mph SSE1.3 kmh SSE 0.8 mph1.3 kmh 29.82 in1009.8 mb 0.00 in0.0 mm 0.00 in0.0 mm 0.00 in0.0 mm
01:42 PM 37.6°F3.1°C 40.7°F4.8°C 90% Calm Calm -- 29.82 in1009.8 mb 0.00 in0.0 mm 0.00 in0.0 mm 0.00 in0.0 mm
01:45 PM 37.5°F3.1°C 40.8°F4.9°C 90% 0.4 mph S0.6 kmh S 0.4 mph0.6 kmh 29.82 in1009.8 mb 0.00 in0.0 mm 0.00 in0.0 mm 0.00 in0.0 mm
01:48 PM 37.5°F3.1°C 40.6°F4.8°C 90% Calm Calm -- 29.82 in1009.8 mb 0.00 in0.0 mm 0.00 in0.0 mm 0.00 in0.0 mm
01:51 PM 37.5°F3.1°C 40.6°F4.8°C 90% 1.2 mph S1.9 kmh S 1.2 mph1.9 kmh 29.82 in1009.8 mb 0.00 in0.0 mm 0.00 in0.0 mm 0.00 in0.0 mm
01:54 PM 37.6°F3.1°C 40.5°F4.7°C 90% 0.8 mph SE1.3 kmh SE 0.8 mph1.3 kmh 29.81 in1009.5 mb 0.00 in0.0 mm 0.00 in0.0 mm 0.00 in0.0 mm
01:57 PM 37.5°F3.1°C 40.9°F4.9°C 90% Calm Calm -- 29.81 in1009.5 mb 0.00 in0.0 mm 0.00 in0.0 mm 0.00 in0.0 mm
02:00 PM 37.6°F3.1°C 40.4°F4.7°C 89% Calm Calm -- 29.81 in1009.5 mb 0.00 in0.0 mm 0.00 in0.0 mm 0.00 in0.0 mm
02:03 PM 37.6°F3.1°C 40.9°F4.9°C 90% Calm Calm -- 29.81 in1009.5 mb 0.00 in0.0 mm 0.00 in0.0 mm 0.00 in0.0 mm
02:06 PM 37.7°F3.2°C 40.5°F4.7°C 89% Calm Calm -- 29.81 in1009.5 mb 0.00 in0.0 mm 0.00 in0.0 mm 0.00 in0.0 mm
02:09 PM 37.6°F3.1°C 40.9°F4.9°C 90% 2.4 mph S3.9 kmh S 2.4 mph3.9 kmh 29.81 in1009.5 mb 0.00 in0.0 mm 0.00 in0.0 mm 0.00 in0.0 mm
02:12 PM 37.6°F3.1°C 40.7°F4.8°C 90% Calm Calm -- 29.81 in1009.5 mb 0.00 in0.0 mm 0.00 in0.0 mm 0.00 in0.0 mm
02:15 PM 37.6°F3.1°C 40.8°F4.9°C 90% 0.8 mph S1.3 kmh S 0.8 mph1.3 kmh 29.80 in1009.1 mb 0.00 in0.0 mm 0.00 in0.0 mm 0.00 in0.0 mm
02:18 PM 37.6°F3.1°C 40.8°F4.9°C 90% Calm Calm -- 29.79 in1008.8 mb 0.00 in0.0 mm 0.00 in0.0 mm 0.00 in0.0 mm
02:21 PM 37.7°F3.2°C 40.7°F4.8°C 90% 0.8 mph SSE1.3 kmh SSE 0.8 mph1.3 kmh 29.79 in1008.8 mb 0.00 in0.0 mm 0.00 in0.0 mm 0.00 in0.0 mm
02:27 PM 37.9°F3.3°C 40.9°F4.9°C 90% 4.0 mph SE6.4 kmh SE 4.1 mph6.6 kmh 29.79 in1008.8 mb 0.00 in0.0 mm 0.00 in0.0 mm 0.00 in0.0 mm
02:30 PM 37.9°F3.3°C 40.9°F4.9°C 91% 3.6 mph SE5.8 kmh SE 3.7 mph6.0 kmh 29.79 in1008.8 mb 0.00 in0.0 mm 0.00 in0.0 mm 0.00 in0.0 mm
02:33 PM 38.0°F3.3°C 41.2°F5.1°C 91% 4.9 mph SE7.9 kmh SE 4.9 mph7.9 kmh 29.79 in1008.8 mb 0.00 in0.0 mm 0.00 in0.0 mm 0.00 in0.0 mm
02:36 PM 37.7°F3.2°C 41.2°F5.1°C 91% 2.8 mph SE4.5 kmh SE 2.9 mph4.7 kmh 29.79 in1008.8 mb 0.00 in0.0 mm 0.00 in0.0 mm 0.00 in0.0 mm
02:39 PM 37.9°F3.3°C 41.1°F5.1°C 91% 0.8 mph SE1.3 kmh SE 0.8 mph1.3 kmh 29.79 in1008.8 mb 0.00 in0.0 mm 0.00 in0.0 mm 0.00 in0.0 mm
02:42 PM 37.7°F3.2°C 41.1°F5.1°C 90% 1.6 mph SSE2.6 kmh SSE 1.6 mph2.6 kmh 29.79 in1008.8 mb 0.00 in0.0 mm 0.00 in0.0 mm 0.00 in0.0 mm
02:45 PM 37.7°F3.2°C 40.6°F4.8°C 89% 3.2 mph SE5.1 kmh SE 3.2 mph5.1 kmh 29.78 in1008.5 mb 0.00 in0.0 mm 0.00 in0.0 mm 0.00 in0.0 mm
02:48 PM 37.9°F3.3°C 40.8°F4.9°C 90% 2.4 mph SE3.9 kmh SE 2.4 mph3.9 kmh 29.78 in1008.5 mb 0.00 in0.0 mm 0.00 in0.0 mm 0.00 in0.0 mm
02:51 PM 37.7°F3.2°C 41.3°F5.2°C 91% 1.6 mph SSE2.6 kmh SSE 1.6 mph2.6 kmh 29.78 in1008.5 mb 0.00 in0.0 mm 0.00 in0.0 mm 0.00 in0.0 mm
02:54 PM 37.7°F3.2°C 40.9°F4.9°C 89% 1.6 mph SE2.6 kmh SE 1.6 mph2.6 kmh 29.78 in1008.5 mb 0.00 in0.0 mm 0.00 in0.0 mm 0.00 in0.0 mm
02:57 PM 37.7°F3.2°C 41.1°F5.1°C 91% 2.8 mph SE4.5 kmh SE 2.9 mph4.7 kmh 29.78 in1008.5 mb 0.00 in0.0 mm 0.00 in0.0 mm 0.00 in0.0 mm
03:00 PM 37.7°F3.2°C 41.2°F5.1°C 91% 2.4 mph NNW3.9 kmh NNW 2.4 mph3.9 kmh 29.78 in1008.5 mb 0.00 in0.0 mm 0.00 in0.0 mm 0.00 in0.0 mm
03:03 PM 37.7°F3.2°C 41.1°F5.1°C 91% 1.6 mph SSE2.6 kmh SSE 1.6 mph2.6 kmh 29.78 in1008.5 mb 0.00 in0.0 mm 0.00 in0.0 mm 0.00 in0.0 mm
03:06 PM 37.7°F3.2°C 41.1°F5.1°C 91% 0.8 mph SSE1.3 kmh SSE 0.8 mph1.3 kmh 29.78 in1008.5 mb 0.00 in0.0 mm 0.00 in0.0 mm 0.00 in0.0 mm
03:09 PM 37.9°F3.3°C 41.4°F5.2°C 91% 1.6 mph SE2.6 kmh SE 1.6 mph2.6 kmh 29.77 in1008.1 mb 0.00 in0.0 mm 0.00 in0.0 mm 0.00 in0.0 mm
03:12 PM 37.9°F3.3°C 41.3°F5.2°C 91% 3.2 mph SE5.1 kmh SE 3.3 mph5.3 kmh 29.77 in1008.1 mb 0.00 in0.0 mm 0.00 in0.0 mm 0.00 in0.0 mm
03:15 PM 37.9°F3.3°C 41.3°F5.2°C 91% 1.2 mph SE1.9 kmh SE 1.2 mph1.9 kmh 29.77 in1008.1 mb 0.00 in0.0 mm 0.00 in0.0 mm 0.00 in0.0 mm
03:18 PM 37.7°F3.2°C 41.3°F5.2°C 91% 3.2 mph SE5.1 kmh SE 3.3 mph5.3 kmh 29.77 in1008.1 mb 0.00 in0.0 mm 0.00 in0.0 mm 0.00 in0.0 mm
03:21 PM 37.9°F3.3°C 41.5°F5.3°C 91% 2.0 mph NNW3.2 kmh NNW 2.0 mph3.2 kmh 29.77 in1008.1 mb 0.00 in0.0 mm 0.00 in0.0 mm 0.00 in0.0 mm
03:24 PM 38.0°F3.3°C 41.5°F5.3°C 91% 3.6 mph SE5.8 kmh SE 3.6 mph5.8 kmh 29.77 in1008.1 mb 0.00 in0.0 mm 0.00 in0.0 mm 0.00 in0.0 mm
03:27 PM 37.9°F3.3°C 41.6°F5.3°C 91% 2.4 mph SE3.9 kmh SE 2.4 mph3.9 kmh 29.77 in1008.1 mb 0.00 in0.0 mm 0.00 in0.0 mm 0.00 in0.0 mm
03:30 PM 38.0°F3.3°C 41.5°F5.3°C 91% 4.0 mph SE6.4 kmh SE 4.0 mph6.4 kmh 29.77 in1008.1 mb 0.00 in0.0 mm 0.00 in0.0 mm 0.00 in0.0 mm
03:33 PM 38.0°F3.3°C 41.6°F5.3°C 91% 4.8 mph SE7.7 kmh SE 4.9 mph7.9 kmh 29.77 in1008.1 mb 0.00 in0.0 mm 0.00 in0.0 mm 0.00 in0.0 mm
03:36 PM 38.0°F3.3°C 41.4°F5.2°C 90% 4.0 mph SE6.4 kmh SE 4.0 mph6.4 kmh 29.76 in1007.8 mb 0.00 in0.0 mm 0.00 in0.0 mm 0.00 in0.0 mm
03:39 PM 37.9°F3.3°C 41.5°F5.3°C 91% 3.6 mph SE5.8 kmh SE 3.7 mph6.0 kmh 29.76 in1007.8 mb 0.00 in0.0 mm 0.00 in0.0 mm 0.00 in0.0 mm
03:42 PM 37.9°F3.3°C 41.2°F5.1°C 90% 2.8 mph SE4.5 kmh SE 2.9 mph4.7 kmh 29.76 in1007.8 mb 0.00 in0.0 mm 0.00 in0.0 mm 0.00 in0.0 mm
03:45 PM 37.9°F3.3°C 41.3°F5.2°C 91% 3.6 mph SE5.8 kmh SE 3.6 mph5.8 kmh 29.76 in1007.8 mb 0.00 in0.0 mm 0.00 in0.0 mm 0.00 in0.0 mm
03:48 PM 37.9°F3.3°C 41.5°F5.3°C 91% 2.8 mph SE4.5 kmh SE 2.9 mph4.7 kmh 29.75 in1007.5 mb 0.00 in0.0 mm 0.00 in0.0 mm 0.00 in0.0 mm
03:51 PM 37.9°F3.3°C 41.7°F5.4°C 91% 2.4 mph SE3.9 kmh SE 2.4 mph3.9 kmh 29.75 in1007.5 mb 0.00 in0.0 mm 0.00 in0.0 mm 0.00 in0.0 mm
03:54 PM 37.9°F3.3°C 41.9°F5.5°C 92% 2.8 mph SE4.5 kmh SE 2.8 mph4.5 kmh 29.75 in1007.5 mb 0.00 in0.0 mm 0.00 in0.0 mm 0.00 in0.0 mm
03:57 PM 37.9°F3.3°C 41.6°F5.3°C 91% 4.0 mph NNW6.4 kmh NNW 4.0 mph6.4 kmh 29.75 in1007.5 mb 0.00 in0.0 mm 0.00 in0.0 mm 0.00 in0.0 mm
04:00 PM 37.9°F3.3°C 41.6°F5.3°C 91% 3.6 mph SE5.8 kmh SE 3.6 mph5.8 kmh 29.75 in1007.5 mb 0.00 in0.0 mm 0.00 in0.0 mm 0.00 in0.0 mm
04:03 PM 37.9°F3.3°C 41.7°F5.4°C 91% 2.8 mph SE4.5 kmh SE 2.9 mph4.7 kmh 29.75 in1007.5 mb 0.00 in0.0 mm 0.00 in0.0 mm 0.00 in0.0 mm
04:06 PM 37.9°F3.3°C 41.7°F5.4°C 91% 4.4 mph SE7.1 kmh SE 4.4 mph7.1 kmh 29.74 in1007.1 mb 0.00 in0.0 mm 0.00 in0.0 mm 0.00 in0.0 mm
04:09 PM 37.9°F3.3°C 41.8°F5.4°C 91% 2.8 mph NNW4.5 kmh NNW 2.9 mph4.7 kmh 29.75 in1007.5 mb 0.00 in0.0 mm 0.00 in0.0 mm 0.00 in0.0 mm
04:12 PM 37.9°F3.3°C 41.7°F5.4°C 91% 3.2 mph SE5.1 kmh SE 3.3 mph5.3 kmh 29.74 in1007.1 mb 0.00 in0.0 mm 0.00 in0.0 mm 0.00 in0.0 mm
04:15 PM 37.9°F3.3°C 42.0°F5.6°C 92% 4.8 mph SE7.7 kmh SE 4.8 mph7.7 kmh 29.74 in1007.1 mb 0.00 in0.0 mm 0.00 in0.0 mm 0.02 in0.5 mm
04:18 PM 37.9°F3.3°C 41.4°F5.2°C 91% 2.8 mph SE4.5 kmh SE 2.8 mph4.5 kmh 29.75 in1007.5 mb 0.00 in0.0 mm 0.00 in0.0 mm 0.02 in0.5 mm
04:21 PM 37.9°F3.3°C 41.7°F5.4°C 91% 3.2 mph NNW5.1 kmh NNW 3.3 mph5.3 kmh 29.74 in1007.1 mb 0.00 in0.0 mm 0.00 in0.0 mm 0.02 in0.5 mm
04:24 PM 37.9°F3.3°C 41.7°F5.4°C 92% 3.6 mph ESE5.8 kmh ESE 3.6 mph5.8 kmh 29.74 in1007.1 mb 0.00 in0.0 mm 0.00 in0.0 mm 0.02 in0.5 mm
04:27 PM 38.0°F3.3°C 41.6°F5.3°C 91% 3.6 mph SE5.8 kmh SE 3.6 mph5.8 kmh 29.74 in1007.1 mb 0.00 in0.0 mm 0.00 in0.0 mm 0.02 in0.5 mm
04:30 PM 38.0°F3.3°C 42.0°F5.6°C 91% 3.6 mph SE5.8 kmh SE 3.6 mph5.8 kmh 29.73 in1006.8 mb 0.00 in0.0 mm 0.00 in0.0 mm 0.02 in0.5 mm
04:33 PM 38.0°F3.3°C 42.0°F5.6°C 92% 3.5 mph SE5.6 kmh SE 3.5 mph5.6 kmh 29.73 in1006.8 mb 0.00 in0.0 mm 0.00 in0.0 mm 0.02 in0.5 mm
04:36 PM 37.9°F3.3°C 41.8°F5.4°C 92% 3.2 mph SE5.1 kmh SE 3.2 mph5.1 kmh 29.73 in1006.8 mb 0.00 in0.0 mm 0.00 in0.0 mm 0.02 in0.5 mm
04:39 PM 37.9°F3.3°C 41.7°F5.4°C 91% 3.2 mph SE5.1 kmh SE 3.2 mph5.1 kmh 29.72 in1006.4 mb 0.00 in0.0 mm 0.00 in0.0 mm 0.02 in0.5 mm
04:42 PM 38.0°F3.3°C 42.0°F5.6°C 92% 2.4 mph SE3.9 kmh SE 2.4 mph3.9 kmh 29.72 in1006.4 mb 0.00 in0.0 mm 0.00 in0.0 mm 0.02 in0.5 mm
04:45 PM 37.9°F3.3°C 41.6°F5.3°C 90% 1.2 mph NNW1.9 kmh NNW 1.2 mph1.9 kmh 29.73 in1006.8 mb 0.00 in0.0 mm 0.00 in0.0 mm 0.02 in0.5 mm
04:48 PM 38.0°F3.3°C 41.9°F5.5°C 91% 2.0 mph NNW3.2 kmh NNW 2.0 mph3.2 kmh 29.72 in1006.4 mb 0.00 in0.0 mm 0.00 in0.0 mm 0.02 in0.5 mm
04:51 PM 38.0°F3.3°C 41.8°F5.4°C 92% 2.8 mph SE4.5 kmh SE 2.9 mph4.7 kmh 29.72 in1006.4 mb 0.00 in0.0 mm 0.00 in0.0 mm 0.02 in0.5 mm
04:54 PM 38.0°F3.3°C 41.4°F5.2°C 90% 2.4 mph SE3.9 kmh SE 2.4 mph3.9 kmh 29.72 in1006.4 mb 0.00 in0.0 mm 0.00 in0.0 mm 0.02 in0.5 mm
04:57 PM 37.9°F3.3°C 41.7°F5.4°C 91% 3.6 mph SE5.8 kmh SE 3.6 mph5.8 kmh 29.72 in1006.4 mb 0.00 in0.0 mm 0.00 in0.0 mm 0.02 in0.5 mm
05:00 PM 38.0°F3.3°C 42.0°F5.6°C 92% 2.8 mph SE4.5 kmh SE 2.8 mph4.5 kmh 29.72 in1006.4 mb 0.00 in0.0 mm 0.00 in0.0 mm 0.02 in0.5 mm
05:03 PM 38.0°F3.3°C 42.1°F5.6°C 91% 2.8 mph ESE4.5 kmh ESE 2.8 mph4.5 kmh 29.72 in1006.4 mb 0.00 in0.0 mm 0.00 in0.0 mm 0.04 in1.0 mm
05:06 PM 38.0°F3.3°C 41.8°F5.4°C 91% 2.4 mph SE3.9 kmh SE 2.4 mph3.9 kmh 29.72 in1006.4 mb 0.00 in0.0 mm 0.00 in0.0 mm 0.04 in1.0 mm
05:09 PM 38.0°F3.3°C 42.1°F5.6°C 92% 2.4 mph SE3.9 kmh SE 2.4 mph3.9 kmh 29.72 in1006.4 mb 0.00 in0.0 mm 0.00 in0.0 mm 0.04 in1.0 mm
05:12 PM 38.0°F3.3°C 42.1°F5.6°C 92% 2.8 mph SE4.5 kmh SE 2.8 mph4.5 kmh 29.72 in1006.4 mb 0.00 in0.0 mm 0.00 in0.0 mm 0.04 in1.0 mm
05:15 PM 38.0°F3.3°C 41.8°F5.4°C 91% 2.8 mph ESE4.5 kmh ESE 2.8 mph4.5 kmh 29.72 in1006.4 mb 0.00 in0.0 mm 0.00 in0.0 mm 0.04 in1.0 mm
05:18 PM 38.0°F3.3°C 42.0°F5.6°C 92% 2.0 mph SE3.2 kmh SE 2.0 mph3.2 kmh 29.72 in1006.4 mb 0.00 in0.0 mm 0.00 in0.0 mm 0.04 in1.0 mm
05:21 PM 38.0°F3.3°C 42.2°F5.7°C 92% 2.8 mph SE4.5 kmh SE 2.9 mph4.7 kmh 29.72 in1006.4 mb 0.00 in0.0 mm 0.00 in0.0 mm 0.04 in1.0 mm
05:24 PM 38.0°F3.3°C 42.0°F5.6°C 92% 3.6 mph SE5.8 kmh SE 3.7 mph6.0 kmh 29.71 in1006.1 mb 0.00 in0.0 mm 0.00 in0.0 mm 0.06 in1.5 mm
05:27 PM 38.1°F3.4°C 42.0°F5.6°C 92% 2.4 mph SE3.9 kmh SE 2.4 mph3.9 kmh 29.71 in1006.1 mb 0.00 in0.0 mm 0.00 in0.0 mm 0.06 in1.5 mm
05:30 PM 38.1°F3.4°C 42.0°F5.6°C 91% 3.6 mph SE5.8 kmh SE 3.6 mph5.8 kmh 29.71 in1006.1 mb 0.00 in0.0 mm 0.00 in0.0 mm 0.06 in1.5 mm
05:33 PM 38.1°F3.4°C 41.7°F5.4°C 90% 2.0 mph SE3.2 kmh SE 2.0 mph3.2 kmh 29.71 in1006.1 mb 0.00 in0.0 mm 0.00 in0.0 mm 0.06 in1.5 mm
05:36 PM 38.1°F3.4°C 42.1°F5.6°C 91% 3.2 mph SE5.1 kmh SE 3.2 mph5.1 kmh 29.71 in1006.1 mb 0.00 in0.0 mm 0.00 in0.0 mm 0.06 in1.5 mm
05:39 PM 38.1°F3.4°C 42.0°F5.6°C 91% 3.2 mph SE5.1 kmh SE 3.3 mph5.3 kmh 29.71 in1006.1 mb 0.00 in0.0 mm 0.00 in0.0 mm 0.06 in1.5 mm
05:42 PM 38.2°F3.4°C 42.3°F5.7°C 92% 2.8 mph NNW4.5 kmh NNW 2.8 mph4.5 kmh 29.71 in1006.1 mb 0.00 in0.0 mm 0.00 in0.0 mm 0.06 in1.5 mm
05:45 PM 38.2°F3.4°C 42.3°F5.7°C 92% 2.8 mph SE4.5 kmh SE 2.8 mph4.5 kmh 29.71 in1006.1 mb 0.00 in0.0 mm 0.00 in0.0 mm 0.06 in1.5 mm
05:48 PM 38.2°F3.4°C 42.1°F5.6°C 92% 3.2 mph SE5.1 kmh SE 3.2 mph5.1 kmh 29.71 in1006.1 mb 0.00 in0.0 mm 0.00 in0.0 mm 0.08 in2.0 mm
05:51 PM 38.2°F3.4°C 42.3°F5.7°C 92% 4.8 mph ESE7.7 kmh ESE 4.8 mph7.7 kmh 29.71 in1006.1 mb 0.00 in0.0 mm 0.00 in0.0 mm 0.08 in2.0 mm
05:54 PM 38.2°F3.4°C 42.2°F5.7°C 92% 2.8 mph SE4.5 kmh SE 2.9 mph4.7 kmh 29.70 in1005.8 mb 0.00 in0.0 mm 0.00 in0.0 mm 0.08 in2.0 mm
05:57 PM 38.2°F3.4°C 42.3°F5.7°C 92% 2.8 mph SE4.5 kmh SE 2.8 mph4.5 kmh 29.71 in1006.1 mb 0.00 in0.0 mm 0.00 in0.0 mm 0.08 in2.0 mm
06:00 PM 38.3°F3.5°C 42.1°F5.6°C 92% 4.4 mph SE7.1 kmh SE 4.5 mph7.2 kmh 29.70 in1005.8 mb 0.00 in0.0 mm 0.00 in0.0 mm 0.08 in2.0 mm
06:03 PM 38.3°F3.5°C 42.4°F5.8°C 92% 4.0 mph NNW6.4 kmh NNW 4.1 mph6.6 kmh 29.70 in1005.8 mb 0.00 in0.0 mm 0.00 in0.0 mm 0.08 in2.0 mm
06:06 PM 38.4°F3.6°C 42.2°F5.7°C 92% 2.4 mph SE3.9 kmh SE 2.4 mph3.9 kmh 29.70 in1005.8 mb 0.00 in0.0 mm 0.00 in0.0 mm 0.08 in2.0 mm
06:09 PM 38.4°F3.6°C 42.6°F5.9°C 92% 2.4 mph ESE3.9 kmh ESE 2.4 mph3.9 kmh 29.70 in1005.8 mb 0.00 in0.0 mm 0.00 in0.0 mm 0.08 in2.0 mm
06:12 PM 38.4°F3.6°C 42.5°F5.8°C 92% 2.4 mph SE3.9 kmh SE 2.4 mph3.9 kmh 29.70 in1005.8 mb 0.00 in0.0 mm 0.00 in0.0 mm 0.08 in2.0 mm
06:15 PM 38.4°F3.6°C 42.3°F5.7°C 92% 2.4 mph SE3.9 kmh SE 2.4 mph3.9 kmh 29.70 in1005.8 mb 0.00 in0.0 mm 0.00 in0.0 mm 0.08 in2.0 mm
06:18 PM 38.4°F3.6°C 42.5°F5.8°C 92% 1.9 mph SE3.1 kmh SE 1.9 mph3.1 kmh 29.70 in1005.8 mb 0.00 in0.0 mm 0.00 in0.0 mm 0.08 in2.0 mm
06:21 PM 38.4°F3.6°C 42.6°F5.9°C 92% 2.4 mph SE3.9 kmh SE 2.4 mph3.9 kmh 29.70 in1005.8 mb 0.00 in0.0 mm 0.00 in0.0 mm 0.08 in2.0 mm
06:24 PM 38.4°F3.6°C 42.6°F5.9°C 92% 3.2 mph SE5.1 kmh SE 3.3 mph5.3 kmh 29.70 in1005.8 mb 0.00 in0.0 mm 0.00 in0.0 mm 0.08 in2.0 mm
06:27 PM 38.5°F3.6°C 42.4°F5.8°C 92% 3.2 mph SE5.1 kmh SE 3.3 mph5.3 kmh 29.70 in1005.8 mb 0.00 in0.0 mm 0.00 in0.0 mm 0.08 in2.0 mm
06:33 PM 38.5°F3.6°C 42.5°F5.8°C 92% 3.6 mph SE5.8 kmh SE 3.7 mph6.0 kmh 29.69 in1005.4 mb 0.00 in0.0 mm 0.00 in0.0 mm 0.08 in2.0 mm
06:36 PM 38.5°F3.6°C 42.6°F5.9°C 92% 2.8 mph SE4.5 kmh SE 2.9 mph4.7 kmh 29.68 in1005.1 mb 0.00 in0.0 mm 0.00 in0.0 mm 0.10 in2.5 mm
06:39 PM 38.6°F3.7°C 42.7°F5.9°C 92% 3.2 mph SE5.1 kmh SE 3.2 mph5.1 kmh 29.68 in1005.1 mb 0.00 in0.0 mm 0.00 in0.0 mm 0.10 in2.5 mm
06:42 PM 38.6°F3.7°C 42.6°F5.9°C 92% 3.2 mph SE5.1 kmh SE 3.3 mph5.3 kmh 29.68 in1005.1 mb 0.00 in0.0 mm 0.00 in0.0 mm 0.10 in2.5 mm
06:45 PM 38.6°F3.7°C 42.5°F5.8°C 92% 3.2 mph SE5.1 kmh SE 3.3 mph5.3 kmh 29.68 in1005.1 mb 0.00 in0.0 mm 0.00 in0.0 mm 0.10 in2.5 mm
06:48 PM 38.8°F3.8°C 42.7°F5.9°C 92% 3.2 mph ESE5.1 kmh ESE 3.3 mph5.3 kmh 29.68 in1005.1 mb 0.00 in0.0 mm 0.00 in0.0 mm 0.10 in2.5 mm
06:51 PM 38.8°F3.8°C 42.7°F5.9°C 92% 4.0 mph SE6.4 kmh SE 4.0 mph6.4 kmh 29.68 in1005.1 mb 0.00 in0.0 mm 0.00 in0.0 mm 0.10 in2.5 mm
06:54 PM 38.9°F3.8°C 43.0°F6.1°C 93% 4.4 mph SE7.1 kmh SE 4.4 mph7.1 kmh 29.68 in1005.1 mb 0.00 in0.0 mm 0.00 in0.0 mm 0.10 in2.5 mm
06:57 PM 38.9°F3.8°C 42.9°F6.1°C 93% 4.0 mph SE6.4 kmh SE 4.1 mph6.6 kmh 29.68 in1005.1 mb 0.00 in0.0 mm 0.00 in0.0 mm 0.10 in2.5 mm
07:00 PM 39.0°F3.9°C 42.9°F6.1°C 92% 4.0 mph SE6.4 kmh SE 4.1 mph6.6 kmh 29.68 in1005.1 mb 0.00 in0.0 mm 0.00 in0.0 mm 0.10 in2.5 mm
07:03 PM 39.0°F3.9°C 43.1°F6.2°C 93% 6.0 mph SE9.7 kmh SE 6.0 mph9.7 kmh 29.68 in1005.1 mb 0.00 in0.0 mm 0.00 in0.0 mm 0.10 in2.5 mm
07:06 PM 39.0°F3.9°C 43.0°F6.1°C 93% 4.0 mph ESE6.4 kmh ESE 4.0 mph6.4 kmh 29.68 in1005.1 mb 0.00 in0.0 mm 0.00 in0.0 mm 0.10 in2.5 mm
07:09 PM 39.1°F3.9°C 43.0°F6.1°C 92% 5.2 mph SE8.4 kmh SE 5.2 mph8.4 kmh 29.67 in1004.7 mb 0.00 in0.0 mm 0.00 in0.0 mm 0.10 in2.5 mm
07:12 PM 39.1°F3.9°C 43.1°F6.2°C 93% 4.4 mph ESE7.1 kmh ESE 4.4 mph7.1 kmh 29.67 in1004.7 mb 0.00 in0.0 mm 0.00 in0.0 mm 0.10 in2.5 mm
07:15 PM 39.1°F3.9°C 43.2°F6.2°C 92% 4.1 mph SE6.6 kmh SE 4.1 mph6.6 kmh 29.67 in1004.7 mb 0.00 in0.0 mm 0.00 in0.0 mm 0.10 in2.5 mm
07:18 PM 39.2°F4.0°C 43.3°F6.3°C 93% 4.0 mph SE6.4 kmh SE 4.0 mph6.4 kmh 29.67 in1004.7 mb 0.00 in0.0 mm 0.00 in0.0 mm 0.10 in2.5 mm
07:21 PM 39.2°F4.0°C 43.4°F6.3°C 93% 4.4 mph SE7.1 kmh SE 4.5 mph7.2 kmh 29.67 in1004.7 mb 0.00 in0.0 mm 0.00 in0.0 mm 0.10 in2.5 mm
07:24 PM 39.2°F4.0°C 42.9°F6.1°C 93% 4.4 mph NNW7.1 kmh NNW 4.4 mph7.1 kmh 29.67 in1004.7 mb 0.00 in0.0 mm 0.00 in0.0 mm 0.10 in2.5 mm
07:27 PM 39.3°F4.1°C 43.4°F6.3°C 93% 4.6 mph SE7.4 kmh SE 4.7 mph7.6 kmh 29.66 in1004.4 mb 0.00 in0.0 mm 0.00 in0.0 mm 0.10 in2.5 mm
07:30 PM 39.3°F4.1°C 43.2°F6.2°C 93% 3.2 mph NNW5.1 kmh NNW 3.3 mph5.3 kmh 29.66 in1004.4 mb 0.00 in0.0 mm 0.00 in0.0 mm 0.10 in2.5 mm
07:33 PM 39.3°F4.1°C 43.4°F6.3°C 93% 4.1 mph SE6.6 kmh SE 4.1 mph6.6 kmh 29.66 in1004.4 mb 0.00 in0.0 mm 0.00 in0.0 mm 0.12 in3.0 mm
07:36 PM 39.3°F4.1°C 43.4°F6.3°C 93% 4.5 mph SE7.2 kmh SE 4.5 mph7.2 kmh 29.66 in1004.4 mb 0.00 in0.0 mm 0.00 in0.0 mm 0.12 in3.0 mm
07:45 PM 39.4°F4.1°C 43.3°F6.3°C 92% 3.2 mph SE5.1 kmh SE 3.2 mph5.1 kmh 29.65 in1004.1 mb 0.00 in0.0 mm 0.00 in0.0 mm 0.12 in3.0 mm
07:48 PM 39.3°F4.1°C 43.5°F6.4°C 93% 3.2 mph SE5.1 kmh SE 3.2 mph5.1 kmh 29.65 in1004.1 mb 0.00 in0.0 mm 0.00 in0.0 mm 0.12 in3.0 mm
07:51 PM 39.3°F4.1°C 43.4°F6.3°C 92% 2.8 mph SE4.5 kmh SE 2.9 mph4.7 kmh 29.64 in1003.7 mb 0.00 in0.0 mm 0.00 in0.0 mm 0.12 in3.0 mm
07:54 PM 39.3°F4.1°C 43.5°F6.4°C 93% 2.8 mph SE4.5 kmh SE 2.9 mph4.7 kmh 29.64 in1003.7 mb 0.00 in0.0 mm 0.00 in0.0 mm 0.12 in3.0 mm
07:57 PM 39.4°F4.1°C 43.5°F6.4°C 93% 3.2 mph SE5.1 kmh SE 3.3 mph5.3 kmh 29.64 in1003.7 mb 0.00 in0.0 mm 0.00 in0.0 mm 0.12 in3.0 mm
08:00 PM 39.4°F4.1°C 43.5°F6.4°C 92% 3.2 mph SE5.1 kmh SE 3.3 mph5.3 kmh 29.64 in1003.7 mb 0.00 in0.0 mm 0.00 in0.0 mm 0.12 in3.0 mm
08:03 PM 39.4°F4.1°C 43.6°F6.4°C 92% 4.5 mph ESE7.2 kmh ESE 4.5 mph7.2 kmh 29.64 in1003.7 mb 0.00 in0.0 mm 0.00 in0.0 mm 0.12 in3.0 mm
08:06 PM 39.4°F4.1°C 43.5°F6.4°C 93% 3.6 mph SE5.8 kmh SE 3.7 mph6.0 kmh 29.64 in1003.7 mb 0.00 in0.0 mm 0.00 in0.0 mm 0.12 in3.0 mm
08:09 PM 39.5°F4.2°C 43.6°F6.4°C 92% 2.8 mph SE4.5 kmh SE 2.9 mph4.7 kmh 29.63 in1003.4 mb 0.00 in0.0 mm 0.00 in0.0 mm 0.12 in3.0 mm
08:12 PM 39.5°F4.2°C 43.6°F6.4°C 92% 2.0 mph SE3.2 kmh SE 2.0 mph3.2 kmh 29.63 in1003.4 mb 0.00 in0.0 mm 0.00 in0.0 mm 0.12 in3.0 mm
08:15 PM 39.5°F4.2°C 43.6°F6.4°C 93% 2.0 mph SE3.2 kmh SE 2.0 mph3.2 kmh 29.63 in1003.4 mb 0.00 in0.0 mm 0.00 in0.0 mm 0.12 in3.0 mm
08:18 PM 39.5°F4.2°C 43.7°F6.5°C 92% 2.4 mph SE3.9 kmh SE 2.4 mph3.9 kmh 29.63 in1003.4 mb 0.00 in0.0 mm 0.00 in0.0 mm 0.12 in3.0 mm
08:21 PM 39.5°F4.2°C 43.7°F6.5°C 93% 2.8 mph NNW4.5 kmh NNW 2.8 mph4.5 kmh 29.62 in1003.0 mb 0.00 in0.0 mm 0.00 in0.0 mm 0.12 in3.0 mm
08:24 PM 39.5°F4.2°C 43.7°F6.5°C 93% 2.8 mph SE4.5 kmh SE 2.9 mph4.7 kmh 29.63 in1003.4 mb 0.00 in0.0 mm 0.00 in0.0 mm 0.12 in3.0 mm
08:27 PM 39.5°F4.2°C 43.7°F6.5°C 92% 3.2 mph SE5.1 kmh SE 3.3 mph5.3 kmh 29.62 in1003.0 mb 0.00 in0.0 mm 0.00 in0.0 mm 0.12 in3.0 mm
08:30 PM 39.7°F4.3°C 43.3°F6.3°C 91% 2.0 mph SE3.2 kmh SE 2.0 mph3.2 kmh 29.62 in1003.0 mb 0.00 in0.0 mm 0.00 in0.0 mm 0.12 in3.0 mm
08:33 PM 39.7°F4.3°C 43.9°F6.6°C 93% 1.9 mph SE3.1 kmh SE 2.0 mph3.2 kmh 29.62 in1003.0 mb 0.00 in0.0 mm 0.00 in0.0 mm 0.12 in3.0 mm
08:36 PM 39.8°F4.3°C 43.9°F6.6°C 93% 2.4 mph ESE3.9 kmh ESE 2.4 mph3.9 kmh 29.61 in1002.7 mb 0.00 in0.0 mm 0.00 in0.0 mm 0.12 in3.0 mm
08:39 PM 39.8°F4.3°C 43.9°F6.6°C 93% 2.0 mph SE3.2 kmh SE 2.0 mph3.2 kmh 29.62 in1003.0 mb 0.00 in0.0 mm 0.00 in0.0 mm 0.12 in3.0 mm
08:42 PM 39.8°F4.3°C 44.0°F6.7°C 93% 2.4 mph SE3.9 kmh SE 2.4 mph3.9 kmh 29.61 in1002.7 mb 0.00 in0.0 mm 0.00 in0.0 mm 0.12 in3.0 mm
08:45 PM 39.9°F4.4°C 43.9°F6.6°C 93% 1.9 mph SE3.1 kmh SE 2.0 mph3.2 kmh 29.61 in1002.7 mb 0.00 in0.0 mm 0.00 in0.0 mm 0.12 in3.0 mm
08:48 PM 39.9°F4.4°C 44.0°F6.7°C 93% 1.2 mph SE1.9 kmh SE 1.2 mph1.9 kmh 29.61 in1002.7 mb 0.00 in0.0 mm 0.00 in0.0 mm 0.12 in3.0 mm
08:51 PM 40.0°F4.4°C 43.9°F6.6°C 93% 4.0 mph NNW6.4 kmh NNW 4.1 mph6.6 kmh 29.61 in1002.7 mb 0.00 in0.0 mm 0.00 in0.0 mm 0.12 in3.0 mm
08:54 PM 40.0°F4.4°C 44.1°F6.7°C 93% 2.3 mph SE3.7 kmh SE 2.3 mph3.7 kmh 29.62 in1003.0 mb 0.00 in0.0 mm 0.00 in0.0 mm 0.12 in3.0 mm
08:57 PM 40.0°F4.4°C 44.1°F6.7°C 93% 2.4 mph SE3.9 kmh SE 2.4 mph3.9 kmh 29.61 in1002.7 mb 0.00 in0.0 mm 0.00 in0.0 mm 0.12 in3.0 mm
09:00 PM 40.0°F4.4°C 44.0°F6.7°C 93% 2.0 mph SE3.2 kmh SE 2.0 mph3.2 kmh 29.61 in1002.7 mb 0.00 in0.0 mm 0.00 in0.0 mm 0.12 in3.0 mm
09:03 PM 40.1°F4.5°C 44.2°F6.8°C 93% 2.8 mph NNW4.5 kmh NNW 2.9 mph4.7 kmh 29.61 in1002.7 mb 0.00 in0.0 mm 0.00 in0.0 mm 0.12 in3.0 mm
09:06 PM 40.1°F4.5°C 44.1°F6.7°C 93% 1.2 mph SE1.9 kmh SE 1.2 mph1.9 kmh 29.61 in1002.7 mb 0.00 in0.0 mm 0.00 in0.0 mm 0.12 in3.0 mm
09:09 PM 40.1°F4.5°C 44.3°F6.8°C 93% Calm Calm -- 29.61 in1002.7 mb 0.00 in0.0 mm 0.00 in0.0 mm 0.12 in3.0 mm
09:12 PM 40.1°F4.5°C 44.2°F6.8°C 93% Calm Calm -- 29.61 in1002.7 mb 0.00 in0.0 mm 0.00 in0.0 mm 0.12 in3.0 mm
09:15 PM 40.2°F4.6°C 44.3°F6.8°C 92% 0.4 mph SE0.6 kmh SE 0.4 mph0.6 kmh 29.61 in1002.7 mb 0.00 in0.0 mm 0.00 in0.0 mm 0.12 in3.0 mm
09:18 PM 40.2°F4.6°C 44.3°F6.8°C 93% Calm Calm -- 29.61 in1002.7 mb 0.00 in0.0 mm 0.00 in0.0 mm 0.12 in3.0 mm
09:21 PM 40.1°F4.5°C 44.4°F6.9°C 93% Calm Calm -- 29.60 in1002.4 mb 0.00 in0.0 mm 0.00 in0.0 mm 0.12 in3.0 mm
09:24 PM 40.3°F4.6°C 43.9°F6.6°C 91% 2.0 mph SE3.2 kmh SE 2.0 mph3.2 kmh 29.60 in1002.4 mb 0.00 in0.0 mm 0.00 in0.0 mm 0.12 in3.0 mm
09:27 PM 40.3°F4.6°C 44.5°F6.9°C 93% 2.0 mph ESE3.2 kmh ESE 2.0 mph3.2 kmh 29.61 in1002.7 mb 0.00 in0.0 mm 0.00 in0.0 mm 0.12 in3.0 mm
09:30 PM 40.3°F4.6°C 44.2°F6.8°C 92% Calm Calm -- 29.60 in1002.4 mb 0.00 in0.0 mm 0.00 in0.0 mm 0.12 in3.0 mm
09:33 PM 40.3°F4.6°C 44.7°F7.1°C 93% Calm Calm -- 29.60 in1002.4 mb 0.00 in0.0 mm 0.00 in0.0 mm 0.12 in3.0 mm
09:36 PM 40.3°F4.6°C 44.3°F6.8°C 92% Calm Calm -- 29.60 in1002.4 mb 0.00 in0.0 mm 0.00 in0.0 mm 0.12 in3.0 mm
09:39 PM 40.2°F4.6°C 44.6°F7.0°C 93% Calm Calm -- 29.60 in1002.4 mb 0.00 in0.0 mm 0.00 in0.0 mm 0.12 in3.0 mm
09:42 PM 40.2°F4.6°C 44.4°F6.9°C 92% Calm Calm -- 29.60 in1002.4 mb 0.00 in0.0 mm 0.00 in0.0 mm 0.12 in3.0 mm
09:45 PM 40.3°F4.6°C 44.6°F7.0°C 92% Calm Calm -- 29.60 in1002.4 mb 0.00 in0.0 mm 0.00 in0.0 mm 0.12 in3.0 mm
09:48 PM 40.3°F4.6°C 44.6°F7.0°C 92% Calm Calm -- 29.60 in1002.4 mb 0.00 in0.0 mm 0.00 in0.0 mm 0.12 in3.0 mm
09:51 PM 40.3°F4.6°C 44.6°F7.0°C 92% Calm Calm -- 29.59 in1002.0 mb 0.00 in0.0 mm 0.00 in0.0 mm 0.12 in3.0 mm
09:54 PM 40.2°F4.6°C 44.4°F6.9°C 92% Calm Calm -- 29.59 in1002.0 mb 0.00 in0.0 mm 0.00 in0.0 mm 0.12 in3.0 mm
09:57 PM 40.3°F4.6°C 44.7°F7.1°C 92% Calm Calm -- 29.59 in1002.0 mb 0.00 in0.0 mm 0.00 in0.0 mm 0.12 in3.0 mm
10:00 PM 40.3°F4.6°C 44.3°F6.8°C 92% Calm Calm -- 29.59 in1002.0 mb 0.00 in0.0 mm 0.00 in0.0 mm 0.12 in3.0 mm
10:03 PM 40.4°F4.7°C 44.4°F6.9°C 92% Calm Calm -- 29.59 in1002.0 mb 0.00 in0.0 mm 0.00 in0.0 mm 0.12 in3.0 mm
10:06 PM 40.4°F4.7°C 44.6°F7.0°C 93% Calm Calm -- 29.59 in1002.0 mb 0.00 in0.0 mm 0.00 in0.0 mm 0.12 in3.0 mm
10:09 PM 40.4°F4.7°C 44.7°F7.1°C 93% 1.2 mph ESE1.9 kmh ESE 1.2 mph1.9 kmh 29.59 in1002.0 mb 0.00 in0.0 mm 0.00 in0.0 mm 0.12 in3.0 mm
10:12 PM 40.6°F4.8°C 44.7°F7.1°C 92% 1.2 mph SE1.9 kmh SE 1.2 mph1.9 kmh 29.59 in1002.0 mb 0.00 in0.0 mm 0.00 in0.0 mm 0.12 in3.0 mm
10:15 PM 40.6°F4.8°C 44.6°F7.0°C 92% Calm Calm -- 29.58 in1001.7 mb 0.00 in0.0 mm 0.00 in0.0 mm 0.12 in3.0 mm
10:18 PM 40.6°F4.8°C 44.8°F7.1°C 93% Calm Calm -- 29.58 in1001.7 mb 0.00 in0.0 mm 0.00 in0.0 mm 0.14 in3.6 mm
10:21 PM 40.7°F4.8°C 44.8°F7.1°C 92% Calm Calm -- 29.57 in1001.4 mb 0.00 in0.0 mm 0.00 in0.0 mm 0.14 in3.6 mm
10:24 PM 40.7°F4.8°C 44.7°F7.1°C 92% Calm Calm -- 29.57 in1001.4 mb 0.00 in0.0 mm 0.00 in0.0 mm 0.14 in3.6 mm
10:27 PM 40.8°F4.9°C 44.8°F7.1°C 92% Calm Calm -- 29.57 in1001.4 mb 0.00 in0.0 mm 0.00 in0.0 mm 0.14 in3.6 mm
10:30 PM 40.7°F4.8°C 44.7°F7.1°C 92% Calm Calm -- 29.57 in1001.4 mb 0.00 in0.0 mm 0.00 in0.0 mm 0.14 in3.6 mm
10:33 PM 40.7°F4.8°C 44.9°F7.2°C 92% Calm Calm -- 29.57 in1001.4 mb 0.00 in0.0 mm 0.00 in0.0 mm 0.14 in3.6 mm
10:36 PM 40.7°F4.8°C 44.6°F7.0°C 92% Calm Calm -- 29.57 in1001.4 mb 0.00 in0.0 mm 0.00 in0.0 mm 0.14 in3.6 mm
10:39 PM 40.6°F4.8°C 44.8°F7.1°C 92% Calm Calm -- 29.57 in1001.4 mb 0.00 in0.0 mm 0.00 in0.0 mm 0.14 in3.6 mm
10:42 PM 40.7°F4.8°C 44.9°F7.2°C 92% Calm Calm -- 29.56 in1001.0 mb 0.00 in0.0 mm 0.00 in0.0 mm 0.14 in3.6 mm
10:45 PM 40.7°F4.8°C 44.8°F7.1°C 92% Calm Calm -- 29.57 in1001.4 mb 0.00 in0.0 mm 0.00 in0.0 mm 0.14 in3.6 mm
10:48 PM 40.7°F4.8°C 44.9°F7.2°C 93% Calm Calm -- 29.56 in1001.0 mb 0.00 in0.0 mm 0.00 in0.0 mm 0.14 in3.6 mm
10:51 PM 40.8°F4.9°C 44.8°F7.1°C 92% Calm Calm -- 29.56 in1001.0 mb 0.00 in0.0 mm 0.00 in0.0 mm 0.14 in3.6 mm
10:54 PM 40.8°F4.9°C 45.0°F7.2°C 92% Calm Calm -- 29.56 in1001.0 mb 0.00 in0.0 mm 0.00 in0.0 mm 0.14 in3.6 mm
10:57 PM 40.8°F4.9°C 45.1°F7.3°C 92% Calm Calm -- 29.56 in1001.0 mb 0.00 in0.0 mm 0.00 in0.0 mm 0.14 in3.6 mm
11:00 PM 40.8°F4.9°C 45.0°F7.2°C 92% Calm Calm -- 29.56 in1001.0 mb 0.00 in0.0 mm 0.00 in0.0 mm 0.14 in3.6 mm
11:03 PM 40.8°F4.9°C 45.1°F7.3°C 92% Calm Calm -- 29.56 in1001.0 mb 0.00 in0.0 mm 0.00 in0.0 mm 0.14 in3.6 mm
11:06 PM 40.8°F4.9°C 45.2°F7.3°C 93% Calm Calm -- 29.55 in1000.7 mb 0.00 in0.0 mm 0.00 in0.0 mm 0.14 in3.6 mm
11:09 PM 40.8°F4.9°C 45.3°F7.4°C 92% Calm Calm -- 29.56 in1001.0 mb 0.00 in0.0 mm 0.00 in0.0 mm 0.14 in3.6 mm
11:12 PM 41.0°F5.0°C 45.1°F7.3°C 92% Calm Calm -- 29.55 in1000.7 mb 0.00 in0.0 mm 0.00 in0.0 mm 0.14 in3.6 mm
11:15 PM 41.1°F5.1°C 45.1°F7.3°C 92% Calm Calm -- 29.55 in1000.7 mb 0.00 in0.0 mm 0.00 in0.0 mm 0.14 in3.6 mm
11:18 PM 41.1°F5.1°C 45.3°F7.4°C 93% Calm Calm -- 29.55 in1000.7 mb 0.00 in0.0 mm 0.00 in0.0 mm 0.14 in3.6 mm
11:21 PM 41.1°F5.1°C 45.1°F7.3°C 92% Calm Calm -- 29.55 in1000.7 mb 0.00 in0.0 mm 0.00 in0.0 mm 0.14 in3.6 mm
11:24 PM 41.0°F5.0°C 45.3°F7.4°C 93% Calm Calm -- 29.55 in1000.7 mb 0.00 in0.0 mm 0.00 in0.0 mm 0.14 in3.6 mm
11:27 PM 41.2°F5.1°C 45.2°F7.3°C 92% Calm Calm -- 29.55 in1000.7 mb 0.00 in0.0 mm 0.00 in0.0 mm 0.14 in3.6 mm
11:30 PM 41.2°F5.1°C 45.3°F7.4°C 93% Calm Calm -- 29.55 in1000.7 mb 0.00 in0.0 mm 0.00 in0.0 mm 0.14 in3.6 mm
11:33 PM 41.3°F5.2°C 45.2°F7.3°C 92% Calm Calm -- 29.54 in1000.3 mb 0.00 in0.0 mm 0.00 in0.0 mm 0.14 in3.6 mm
11:36 PM 41.2°F5.1°C 45.2°F7.3°C 92% Calm Calm -- 29.54 in1000.3 mb 0.00 in0.0 mm 0.00 in0.0 mm 0.14 in3.6 mm
11:39 PM 41.3°F5.2°C 45.3°F7.4°C 92% Calm Calm -- 29.54 in1000.3 mb 0.00 in0.0 mm 0.00 in0.0 mm 0.14 in3.6 mm
11:42 PM 41.3°F5.2°C 45.4°F7.4°C 92% Calm Calm -- 29.54 in1000.3 mb 0.00 in0.0 mm 0.00 in0.0 mm 0.14 in3.6 mm
11:45 PM 41.5°F5.3°C 45.2°F7.3°C 92% Calm Calm -- 29.54 in1000.3 mb 0.00 in0.0 mm 0.00 in0.0 mm 0.14 in3.6 mm
11:48 PM 41.5°F5.3°C 45.3°F7.4°C 92% Calm Calm -- 29.53 in1000.0 mb 0.00 in0.0 mm 0.00 in0.0 mm 0.16 in4.1 mm
11:51 PM 41.5°F5.3°C 45.5°F7.5°C 92% Calm Calm -- 29.54 in1000.3 mb 0.00 in0.0 mm 0.00 in0.0 mm 0.16 in4.1 mm
11:54 PM 41.6°F5.3°C 45.6°F7.6°C 93% Calm Calm -- 29.53 in1000.0 mb 0.00 in0.0 mm 0.00 in0.0 mm 0.16 in4.1 mm
11:57 PM 41.7°F5.4°C 45.3°F7.4°C 92% Calm Calm -- 29.53 in1000.0 mb 0.00 in0.0 mm 0.00 in0.0 mm 0.16 in4.1 mm